Wetterdaten: Donnerstag, 11.12.2025
Datum Zeit Temp. Aussen Temp. o. S. Temp +5cm Feuchte Auss Luftdruck Regen Sonnenschein Regendauer Solar Windböen Empfang
11.12.2025 00:00 9,8 °C 8,9 °C 5,6 °C 93 % 1023,9 hPa 0,0 l/m² 0 min 0 min 0 W/m² 6,4 km/h (2 Bft) 97,55 %
11.12.2025 00:02 9,8 °C 8,9 °C 5,6 °C 93 % 1023,9 hPa 0,0 l/m² 0 min 0 min 0 W/m² 3,2 km/h (1 Bft) 100,00 %
11.12.2025 00:07 9,8 °C 9,4 °C 5,6 °C 94 % 1023,9 hPa 0,0 l/m² 0 min 0 min 0 W/m² 6,4 km/h (2 Bft) 100,00 %
11.12.2025 00:08 9,9 °C 9,4 °C 6,1 °C 94 % 1023,8 hPa 0,0 l/m² 0 min 0 min 0 W/m² 3,2 km/h (1 Bft) 100,00 %
11.12.2025 00:10 9,9 °C 9,4 °C 6,1 °C 94 % 1023,9 hPa 0,0 l/m² 0 min 0 min 0 W/m² 3,2 km/h (1 Bft) 100,00 %
11.12.2025 00:17 9,9 °C 9,4 °C 6,1 °C 94 % 1023,9 hPa 0,0 l/m² 0 min 0 min 0 W/m² 3,2 km/h (1 Bft) 100,00 %
11.12.2025 00:20 9,9 °C 9,4 °C 6,1 °C 94 % 1023,9 hPa 0,0 l/m² 0 min 0 min 0 W/m² 3,2 km/h (1 Bft) 97,14 %
11.12.2025 00:22 9,9 °C 9,4 °C 6,1 °C 94 % 1023,9 hPa 0,0 l/m² 0 min 0 min 0 W/m² 3,2 km/h (1 Bft) 95,65 %
11.12.2025 00:24 9,9 °C 9,4 °C 6,1 °C 94 % 1023,9 hPa 0,0 l/m² 0 min 0 min 0 W/m² 6,4 km/h (2 Bft) 100,00 %
11.12.2025 00:26 9,9 °C 9,4 °C 6,1 °C 94 % 1023,9 hPa 0,0 l/m² 0 min 0 min 0 W/m² 6,4 km/h (2 Bft) 98,11 %
11.12.2025 00:28 9,9 °C 9,4 °C 6,1 °C 94 % 1023,9 hPa 0,0 l/m² 0 min 0 min 0 W/m² 6,4 km/h (2 Bft) 97,67 %
11.12.2025 00:30 9,9 °C 9,4 °C 6,1 °C 94 % 1024,0 hPa 0,0 l/m² 0 min 0 min 0 W/m² 9,7 km/h (2 Bft) 94,00 %
11.12.2025 00:32 9,9 °C 9,4 °C 6,1 °C 94 % 1024,0 hPa 0,0 l/m² 0 min 0 min 0 W/m² 6,4 km/h (2 Bft) 97,87 %
11.12.2025 00:34 9,9 °C 9,4 °C 6,1 °C 94 % 1024,0 hPa 0,0 l/m² 0 min 0 min 0 W/m² 6,4 km/h (2 Bft) 97,62 %
11.12.2025 00:36 9,9 °C 9,4 °C 6,1 °C 94 % 1024,1 hPa 0,0 l/m² 0 min 0 min 0 W/m² 3,2 km/h (1 Bft) 96,15 %
11.12.2025 00:38 9,9 °C 9,4 °C 6,1 °C 94 % 1024,1 hPa 0,0 l/m² 0 min 0 min 0 W/m² 6,4 km/h (2 Bft) 97,73 %
11.12.2025 00:40 9,9 °C 9,4 °C 6,1 °C 94 % 1024,1 hPa 0,0 l/m² 0 min 0 min 0 W/m² 6,4 km/h (2 Bft) 94,74 %
11.12.2025 00:42 10,0 °C 9,4 °C 6,1 °C 94 % 1024,1 hPa 0,0 l/m² 0 min 0 min 0 W/m² 9,7 km/h (2 Bft) 98,28 %
11.12.2025 00:44 10,0 °C 9,4 °C 6,1 °C 94 % 1024,1 hPa 0,0 l/m² 0 min 0 min 0 W/m² 6,4 km/h (2 Bft) 97,67 %
11.12.2025 00:46 10,0 °C 9,4 °C 6,1 °C 94 % 1024,2 hPa 0,0 l/m² 0 min 0 min 0 W/m² 3,2 km/h (1 Bft) 96,15 %
11.12.2025 00:48 10,0 °C 9,4 °C 6,1 °C 94 % 1024,1 hPa 0,0 l/m² 0 min 0 min 0 W/m² 6,4 km/h (2 Bft) 97,62 %
11.12.2025 00:50 10,0 °C 9,4 °C 6,1 °C 94 % 1024,1 hPa 0,0 l/m² 0 min 0 min 0 W/m² 6,4 km/h (2 Bft) 96,15 %
11.12.2025 00:52 9,9 °C 9,4 °C 6,1 °C 94 % 1024,2 hPa 0,0 l/m² 0 min 0 min 0 W/m² 6,4 km/h (2 Bft) 97,73 %
11.12.2025 00:54 9,9 °C 9,4 °C 6,1 °C 94 % 1024,2 hPa 0,0 l/m² 0 min 0 min 0 W/m² 6,4 km/h (2 Bft) 94,74 %
11.12.2025 00:56 9,9 °C 9,4 °C 6,1 °C 94 % 1024,2 hPa 0,0 l/m² 0 min 0 min 0 W/m² 6,4 km/h (2 Bft) 96,55 %
11.12.2025 00:58 9,9 °C 9,4 °C 6,1 °C 94 % 1024,2 hPa 0,0 l/m² 0 min 0 min 0 W/m² 3,2 km/h (1 Bft) 97,87 %
11.12.2025 01:00 9,9 °C 9,4 °C 6,1 °C 94 % 1024,1 hPa 0,0 l/m² 0 min 0 min 0 W/m² 3,2 km/h (1 Bft) 100,00 %
11.12.2025 01:02 9,9 °C 9,4 °C 6,1 °C 94 % 1024,2 hPa 0,0 l/m² 0 min 0 min 0 W/m² 9,7 km/h (2 Bft) 97,67 %
11.12.2025 01:04 9,9 °C 8,9 °C 6,1 °C 94 % 1024,1 hPa 0,0 l/m² 0 min 0 min 0 W/m² 9,7 km/h (2 Bft) 96,36 %
11.12.2025 01:06 9,9 °C 8,9 °C 6,1 °C 94 % 1024,1 hPa 0,0 l/m² 0 min 0 min 0 W/m² 12,9 km/h (3 Bft) 95,12 %
11.12.2025 01:08 9,9 °C 8,9 °C 5,6 °C 94 % 1024,1 hPa 0,0 l/m² 0 min 0 min 0 W/m² 12,9 km/h (3 Bft) 97,56 %
11.12.2025 01:10 9,8 °C 8,9 °C 5,6 °C 94 % 1024,1 hPa 0,0 l/m² 0 min 0 min 0 W/m² 6,4 km/h (2 Bft) 95,74 %
11.12.2025 01:12 9,8 °C 8,9 °C 5,6 °C 94 % 1024,1 hPa 0,0 l/m² 0 min 0 min 0 W/m² 6,4 km/h (2 Bft) 96,30 %
11.12.2025 01:14 9,8 °C 8,9 °C 5,6 °C 94 % 1024,1 hPa 0,0 l/m² 0 min 0 min 0 W/m² 6,4 km/h (2 Bft) 97,44 %
11.12.2025 01:16 9,8 °C 8,9 °C 5,6 °C 94 % 1024,1 hPa 0,0 l/m² 0 min 0 min 0 W/m² 3,2 km/h (1 Bft) 96,36 %
11.12.2025 01:18 9,7 °C 8,9 °C 5,6 °C 94 % 1024,1 hPa 0,0 l/m² 0 min 0 min 0 W/m² 9,7 km/h (2 Bft) 94,87 %
11.12.2025 01:20 9,7 °C 8,9 °C 5,6 °C 94 % 1024,1 hPa 0,0 l/m² 0 min 0 min 0 W/m² 3,2 km/h (1 Bft) 96,55 %
11.12.2025 01:22 9,7 °C 8,9 °C 5,6 °C 94 % 1024,1 hPa 0,0 l/m² 0 min 0 min 0 W/m² 12,9 km/h (3 Bft) 97,22 %
11.12.2025 01:24 9,7 °C 8,9 °C 5,6 °C 94 % 1024,1 hPa 0,0 l/m² 0 min 0 min 0 W/m² 12,9 km/h (3 Bft) 96,55 %
11.12.2025 01:26 9,6 °C 8,3 °C 5,6 °C 94 % 1024,1 hPa 0,0 l/m² 0 min 0 min 0 W/m² 3,2 km/h (1 Bft) 94,44 %
11.12.2025 01:28 9,6 °C 8,3 °C 5,6 °C 94 % 1024,1 hPa 0,0 l/m² 0 min 0 min 0 W/m² 6,4 km/h (2 Bft) 97,87 %
11.12.2025 01:30 9,6 °C 8,3 °C 5,6 °C 94 % 1024,1 hPa 0,0 l/m² 0 min 0 min 0 W/m² 12,9 km/h (3 Bft) 93,62 %
11.12.2025 01:32 9,6 °C 8,3 °C 5,6 °C 94 % 1024,1 hPa 0,0 l/m² 0 min 0 min 0 W/m² 6,4 km/h (2 Bft) 93,62 %
11.12.2025 01:34 9,5 °C 8,3 °C 5,6 °C 94 % 1024,1 hPa 0,0 l/m² 0 min 0 min 0 W/m² 6,4 km/h (2 Bft) 96,30 %
11.12.2025 01:36 9,5 °C 8,3 °C 5,0 °C 94 % 1024,1 hPa 0,0 l/m² 0 min 0 min 0 W/m² 6,4 km/h (2 Bft) 92,50 %
11.12.2025 01:38 9,4 °C 8,3 °C 5,0 °C 93 % 1024,1 hPa 0,0 l/m² 0 min 0 min 0 W/m² 3,2 km/h (1 Bft) 94,55 %
11.12.2025 01:40 9,4 °C 8,3 °C 5,0 °C 93 % 1024,1 hPa 0,0 l/m² 0 min 0 min 0 W/m² 6,4 km/h (2 Bft) 94,74 %
11.12.2025 01:42 9,4 °C 8,3 °C 5,0 °C 93 % 1024,2 hPa 0,0 l/m² 0 min 0 min 0 W/m² 0,0 km/h (0 Bft) 92,98 %
11.12.2025 01:44 9,3 °C 7,8 °C 5,0 °C 93 % 1024,2 hPa 0,0 l/m² 0 min 0 min 0 W/m² 0,0 km/h (0 Bft) 97,30 %
11.12.2025 01:46 9,3 °C 7,8 °C 5,0 °C 94 % 1024,3 hPa 0,0 l/m² 0 min 0 min 0 W/m² 6,4 km/h (2 Bft) 94,64 %
11.12.2025 01:48 9,3 °C 7,8 °C 5,0 °C 94 % 1024,3 hPa 0,0 l/m² 0 min 0 min 0 W/m² 6,4 km/h (2 Bft) 100,00 %
11.12.2025 01:50 9,3 °C 7,8 °C 5,0 °C 94 % 1024,3 hPa 0,0 l/m² 0 min 0 min 0 W/m² 3,2 km/h (1 Bft) 92,86 %
11.12.2025 01:52 9,2 °C 7,8 °C 5,0 °C 94 % 1024,4 hPa 0,0 l/m² 0 min 0 min 0 W/m² 6,4 km/h (2 Bft) 92,11 %
11.12.2025 01:54 9,2 °C 8,3 °C 5,0 °C 94 % 1024,4 hPa 0,0 l/m² 0 min 0 min 0 W/m² 6,4 km/h (2 Bft) 97,83 %
11.12.2025 01:56 9,2 °C 8,3 °C 5,0 °C 94 % 1024,4 hPa 0,0 l/m² 0 min 0 min 0 W/m² 3,2 km/h (1 Bft) 97,92 %
11.12.2025 01:58 9,2 °C 8,3 °C 5,0 °C 94 % 1024,4 hPa 0,0 l/m² 0 min 0 min 0 W/m² 3,2 km/h (1 Bft) 100,00 %
11.12.2025 02:00 9,2 °C 8,3 °C 5,0 °C 94 % 1024,4 hPa 0,0 l/m² 0 min 0 min 0 W/m² 3,2 km/h (1 Bft) 100,00 %
11.12.2025 02:02 9,2 °C 8,3 °C 5,0 °C 94 % 1024,4 hPa 0,0 l/m² 0 min 0 min 0 W/m² 6,4 km/h (2 Bft) 98,21 %
11.12.2025 02:04 9,2 °C 8,3 °C 5,0 °C 94 % 1024,4 hPa 0,0 l/m² 0 min 0 min 0 W/m² 6,4 km/h (2 Bft) 100,00 %
11.12.2025 02:06 9,2 °C 8,3 °C 5,0 °C 94 % 1024,4 hPa 0,0 l/m² 0 min 0 min 0 W/m² 9,7 km/h (2 Bft) 100,00 %
11.12.2025 02:08 9,2 °C 8,3 °C 5,0 °C 94 % 1024,4 hPa 0,0 l/m² 0 min 0 min 0 W/m² 9,7 km/h (2 Bft) 100,00 %
11.12.2025 02:10 9,2 °C 8,3 °C 5,0 °C 94 % 1024,4 hPa 0,0 l/m² 0 min 0 min 0 W/m² 9,7 km/h (2 Bft) 100,00 %
11.12.2025 02:14 9,2 °C 8,3 °C 5,6 °C 94 % 1024,4 hPa 0,0 l/m² 0 min 0 min 0 W/m² 9,7 km/h (2 Bft) 100,00 %
11.12.2025 02:16 9,2 °C 8,3 °C 5,6 °C 94 % 1024,4 hPa 0,0 l/m² 0 min 0 min 0 W/m² 6,4 km/h (2 Bft) 100,00 %
11.12.2025 02:18 9,2 °C 8,3 °C 5,6 °C 94 % 1024,3 hPa 0,0 l/m² 0 min 0 min 0 W/m² 9,7 km/h (2 Bft) 100,00 %
11.12.2025 02:20 9,2 °C 8,3 °C 5,6 °C 94 % 1024,4 hPa 0,0 l/m² 0 min 0 min 0 W/m² 3,2 km/h (1 Bft) 100,00 %
11.12.2025 02:22 9,2 °C 8,3 °C 5,6 °C 94 % 1024,3 hPa 0,0 l/m² 0 min 0 min 0 W/m² 6,4 km/h (2 Bft) 96,61 %
11.12.2025 02:24 9,2 °C 8,3 °C 5,6 °C 94 % 1024,3 hPa 0,0 l/m² 0 min 0 min 0 W/m² 3,2 km/h (1 Bft) 100,00 %
11.12.2025 02:26 9,2 °C 8,3 °C 5,6 °C 95 % 1024,4 hPa 0,0 l/m² 0 min 0 min 0 W/m² 3,2 km/h (1 Bft) 100,00 %
11.12.2025 02:28 9,2 °C 8,3 °C 5,6 °C 94 % 1024,4 hPa 0,0 l/m² 0 min 0 min 0 W/m² 6,4 km/h (2 Bft) 100,00 %
11.12.2025 02:30 9,2 °C 8,3 °C 5,6 °C 95 % 1024,4 hPa 0,0 l/m² 0 min 0 min 0 W/m² 3,2 km/h (1 Bft) 100,00 %
11.12.2025 02:32 9,2 °C 8,3 °C 5,6 °C 95 % 1024,4 hPa 0,0 l/m² 0 min 0 min 0 W/m² 12,9 km/h (3 Bft) 100,00 %
11.12.2025 02:34 9,2 °C 8,3 °C 5,6 °C 95 % 1024,4 hPa 0,0 l/m² 0 min 0 min 0 W/m² 9,7 km/h (2 Bft) 100,00 %
11.12.2025 02:36 9,1 °C 8,3 °C 5,6 °C 95 % 1024,4 hPa 0,0 l/m² 0 min 0 min 0 W/m² 16,1 km/h (3 Bft) 94,92 %
11.12.2025 02:38 9,1 °C 8,3 °C 5,6 °C 95 % 1024,5 hPa 0,0 l/m² 0 min 0 min 0 W/m² 12,9 km/h (3 Bft) 57,50 %
11.12.2025 02:40 9,1 °C 8,3 °C 5,6 °C 95 % 1024,5 hPa 0,0 l/m² 0 min 0 min 0 W/m² 12,9 km/h (3 Bft) 100,00 %
11.12.2025 02:42 9,1 °C 8,3 °C 5,6 °C 95 % 1024,5 hPa 0,0 l/m² 0 min 0 min 0 W/m² 6,4 km/h (2 Bft) 100,00 %
11.12.2025 02:44 9,1 °C 8,3 °C 5,6 °C 95 % 1024,5 hPa 0,0 l/m² 0 min 0 min 0 W/m² 6,4 km/h (2 Bft) 100,00 %
11.12.2025 02:46 9,1 °C 8,3 °C 5,6 °C 95 % 1024,5 hPa 0,0 l/m² 0 min 0 min 0 W/m² 9,7 km/h (2 Bft) 98,04 %
11.12.2025 02:48 9,1 °C 8,3 °C 5,6 °C 95 % 1024,4 hPa 0,0 l/m² 0 min 0 min 0 W/m² 6,4 km/h (2 Bft) 100,00 %
11.12.2025 02:50 9,1 °C 8,3 °C 5,6 °C 95 % 1024,4 hPa 0,0 l/m² 0 min 0 min 0 W/m² 9,7 km/h (2 Bft) 97,67 %
11.12.2025 02:52 9,1 °C 8,3 °C 5,6 °C 95 % 1024,5 hPa 0,0 l/m² 0 min 0 min 0 W/m² 6,4 km/h (2 Bft) 98,08 %
11.12.2025 02:54 9,1 °C 8,3 °C 5,6 °C 95 % 1024,5 hPa 0,0 l/m² 0 min 0 min 0 W/m² 6,4 km/h (2 Bft) 100,00 %
11.12.2025 02:56 9,1 °C 8,3 °C 5,6 °C 95 % 1024,5 hPa 0,0 l/m² 0 min 0 min 0 W/m² 6,4 km/h (2 Bft) 97,44 %
11.12.2025 02:58 9,1 °C 8,3 °C 5,6 °C 95 % 1024,4 hPa 0,0 l/m² 0 min 0 min 0 W/m² 12,9 km/h (3 Bft) 100,00 %
11.12.2025 03:00 9,1 °C 8,3 °C 5,6 °C 95 % 1024,4 hPa 0,0 l/m² 0 min 0 min 0 W/m² 3,2 km/h (1 Bft) 100,00 %
11.12.2025 03:02 9,1 °C 8,3 °C 5,6 °C 95 % 1024,4 hPa 0,0 l/m² 0 min 0 min 0 W/m² 9,7 km/h (2 Bft) 97,73 %
11.12.2025 03:04 9,1 °C 8,3 °C 5,6 °C 95 % 1024,4 hPa 0,0 l/m² 0 min 0 min 0 W/m² 9,7 km/h (2 Bft) 100,00 %
11.12.2025 03:07 9,1 °C 8,3 °C 5,6 °C 95 % 1024,4 hPa 0,0 l/m² 0 min 0 min 0 W/m² 9,7 km/h (2 Bft) 97,47 %
11.12.2025 03:08 9,1 °C 8,3 °C 5,6 °C 95 % 1024,4 hPa 0,0 l/m² 0 min 0 min 0 W/m² 6,4 km/h (2 Bft) 100,00 %
11.12.2025 03:12 9,1 °C 8,3 °C 5,6 °C 95 % 1024,4 hPa 0,0 l/m² 0 min 0 min 0 W/m² 3,2 km/h (1 Bft) 100,00 %
11.12.2025 03:14 9,1 °C 8,3 °C 5,6 °C 95 % 1024,5 hPa 0,0 l/m² 0 min 0 min 0 W/m² 12,9 km/h (3 Bft) 100,00 %
11.12.2025 03:16 9,1 °C 8,3 °C 5,6 °C 95 % 1024,6 hPa 0,0 l/m² 0 min 0 min 0 W/m² 6,4 km/h (2 Bft) 100,00 %
11.12.2025 03:18 9,1 °C 8,3 °C 5,6 °C 95 % 1024,5 hPa 0,0 l/m² 0 min 0 min 0 W/m² 9,7 km/h (2 Bft) 98,25 %
11.12.2025 03:20 9,1 °C 8,3 °C 5,6 °C 95 % 1024,5 hPa 0,0 l/m² 0 min 0 min 0 W/m² 3,2 km/h (1 Bft) 97,30 %
11.12.2025 03:22 9,1 °C 8,3 °C 5,6 °C 95 % 1024,4 hPa 0,0 l/m² 0 min 0 min 0 W/m² 6,4 km/h (2 Bft) 98,28 %
11.12.2025 03:24 9,1 °C 8,3 °C 5,6 °C 95 % 1024,5 hPa 0,0 l/m² 0 min 0 min 0 W/m² 3,2 km/h (1 Bft) 92,11 %
11.12.2025 03:26 9,1 °C 8,3 °C 5,6 °C 95 % 1024,5 hPa 0,0 l/m² 0 min 0 min 0 W/m² 3,2 km/h (1 Bft) 95,65 %
11.12.2025 03:28 9,1 °C 8,3 °C 5,6 °C 95 % 1024,5 hPa 0,0 l/m² 0 min 0 min 0 W/m² 6,4 km/h (2 Bft) 94,55 %
11.12.2025 03:30 9,1 °C 8,3 °C 5,6 °C 95 % 1024,4 hPa 0,0 l/m² 0 min 0 min 0 W/m² 3,2 km/h (1 Bft) 95,00 %
11.12.2025 03:32 9,1 °C 8,3 °C 5,6 °C 95 % 1024,4 hPa 0,0 l/m² 0 min 0 min 0 W/m² 6,4 km/h (2 Bft) 93,33 %
11.12.2025 03:34 9,1 °C 8,3 °C 5,6 °C 95 % 1024,4 hPa 0,0 l/m² 0 min 0 min 0 W/m² 6,4 km/h (2 Bft) 91,07 %
11.12.2025 03:36 9,1 °C 8,3 °C 5,6 °C 95 % 1024,3 hPa 0,0 l/m² 0 min 0 min 0 W/m² 6,4 km/h (2 Bft) 95,00 %
11.12.2025 03:38 9,2 °C 8,3 °C 5,6 °C 95 % 1024,4 hPa 0,0 l/m² 0 min 0 min 0 W/m² 6,4 km/h (2 Bft) 92,00 %
11.12.2025 03:40 9,1 °C 8,3 °C 5,6 °C 95 % 1024,3 hPa 0,0 l/m² 0 min 0 min 0 W/m² 9,7 km/h (2 Bft) 91,30 %
11.12.2025 03:42 9,1 °C 8,3 °C 5,6 °C 95 % 1024,3 hPa 0,0 l/m² 0 min 0 min 0 W/m² 12,9 km/h (3 Bft) 93,02 %
11.12.2025 03:44 9,1 °C 8,3 °C 5,6 °C 95 % 1024,3 hPa 0,0 l/m² 0 min 0 min 0 W/m² 12,9 km/h (3 Bft) 94,23 %
11.12.2025 03:46 9,1 °C 8,3 °C 5,6 °C 95 % 1024,2 hPa 0,0 l/m² 0 min 0 min 0 W/m² 6,4 km/h (2 Bft) 90,91 %
11.12.2025 03:48 9,1 °C 8,3 °C 5,6 °C 95 % 1024,2 hPa 0,0 l/m² 0 min 0 min 0 W/m² 6,4 km/h (2 Bft) 91,84 %
11.12.2025 03:50 9,1 °C 8,3 °C 5,6 °C 95 % 1024,2 hPa 0,0 l/m² 0 min 0 min 0 W/m² 16,1 km/h (3 Bft) 91,30 %
11.12.2025 03:52 9,1 °C 8,3 °C 5,6 °C 95 % 1024,2 hPa 0,0 l/m² 0 min 0 min 0 W/m² 6,4 km/h (2 Bft) 94,59 %
11.12.2025 03:54 9,1 °C 8,3 °C 5,0 °C 95 % 1024,2 hPa 0,0 l/m² 0 min 0 min 0 W/m² 6,4 km/h (2 Bft) 96,49 %
11.12.2025 03:56 9,1 °C 8,3 °C 5,0 °C 95 % 1024,2 hPa 0,0 l/m² 0 min 0 min 0 W/m² 3,2 km/h (1 Bft) 94,44 %
11.12.2025 03:58 9,1 °C 8,3 °C 5,0 °C 95 % 1024,2 hPa 0,0 l/m² 0 min 0 min 0 W/m² 3,2 km/h (1 Bft) 91,53 %
11.12.2025 04:00 9,1 °C 7,8 °C 5,0 °C 95 % 1024,3 hPa 0,0 l/m² 0 min 0 min 0 W/m² 3,2 km/h (1 Bft) 95,35 %
11.12.2025 04:02 9,1 °C 7,8 °C 5,0 °C 95 % 1024,3 hPa 0,0 l/m² 0 min 0 min 0 W/m² 3,2 km/h (1 Bft) 96,08 %
11.12.2025 04:04 9,0 °C 7,8 °C 5,0 °C 95 % 1024,3 hPa 0,0 l/m² 0 min 0 min 0 W/m² 6,4 km/h (2 Bft) 95,74 %
11.12.2025 04:06 9,0 °C 7,8 °C 5,0 °C 95 % 1024,4 hPa 0,0 l/m² 0 min 0 min 0 W/m² 6,4 km/h (2 Bft) 93,88 %
11.12.2025 04:08 9,0 °C 7,8 °C 5,0 °C 95 % 1024,4 hPa 0,0 l/m² 0 min 0 min 0 W/m² 9,7 km/h (2 Bft) 97,14 %
11.12.2025 04:10 9,0 °C 7,8 °C 5,0 °C 95 % 1024,4 hPa 0,0 l/m² 0 min 0 min 0 W/m² 6,4 km/h (2 Bft) 95,74 %
11.12.2025 04:12 9,0 °C 7,8 °C 5,0 °C 95 % 1024,3 hPa 0,0 l/m² 0 min 0 min 0 W/m² 9,7 km/h (2 Bft) 94,74 %
11.12.2025 04:14 8,9 °C 7,8 °C 5,0 °C 95 % 1024,3 hPa 0,0 l/m² 0 min 0 min 0 W/m² 3,2 km/h (1 Bft) 91,89 %
11.12.2025 04:16 8,9 °C 7,8 °C 5,0 °C 95 % 1024,3 hPa 0,0 l/m² 0 min 0 min 0 W/m² 6,4 km/h (2 Bft) 98,28 %
11.12.2025 04:18 8,9 °C 8,3 °C 5,0 °C 95 % 1024,3 hPa 0,0 l/m² 0 min 0 min 0 W/m² 9,7 km/h (2 Bft) 97,67 %
11.12.2025 04:20 8,9 °C 8,3 °C 5,0 °C 95 % 1024,3 hPa 0,0 l/m² 0 min 0 min 0 W/m² 6,4 km/h (2 Bft) 97,44 %
11.12.2025 04:22 8,9 °C 8,3 °C 5,0 °C 95 % 1024,3 hPa 0,0 l/m² 0 min 0 min 0 W/m² 6,4 km/h (2 Bft) 100,00 %
11.12.2025 04:24 8,9 °C 8,3 °C 5,0 °C 95 % 1024,3 hPa 0,0 l/m² 0 min 0 min 0 W/m² 3,2 km/h (1 Bft) 100,00 %
11.12.2025 04:26 8,9 °C 8,3 °C 5,0 °C 95 % 1024,3 hPa 0,0 l/m² 0 min 0 min 0 W/m² 12,9 km/h (3 Bft) 97,50 %
11.12.2025 04:28 8,9 °C 8,3 °C 5,0 °C 95 % 1024,3 hPa 0,0 l/m² 0 min 0 min 0 W/m² 6,4 km/h (2 Bft) 100,00 %
11.12.2025 04:30 8,9 °C 8,3 °C 5,0 °C 95 % 1024,3 hPa 0,0 l/m² 0 min 0 min 0 W/m² 12,9 km/h (3 Bft) 100,00 %
11.12.2025 04:32 8,9 °C 8,3 °C 5,0 °C 95 % 1024,3 hPa 0,0 l/m² 0 min 0 min 0 W/m² 6,4 km/h (2 Bft) 100,00 %
11.12.2025 04:34 8,9 °C 8,3 °C 5,0 °C 95 % 1024,3 hPa 0,0 l/m² 0 min 0 min 0 W/m² 12,9 km/h (3 Bft) 100,00 %
11.12.2025 04:36 9,0 °C 8,3 °C 5,0 °C 95 % 1024,3 hPa 0,0 l/m² 0 min 0 min 0 W/m² 6,4 km/h (2 Bft) 100,00 %
11.12.2025 04:38 9,0 °C 8,3 °C 5,0 °C 95 % 1024,2 hPa 0,0 l/m² 0 min 0 min 0 W/m² 9,7 km/h (2 Bft) 100,00 %
11.12.2025 04:40 9,0 °C 8,3 °C 5,6 °C 95 % 1024,2 hPa 0,0 l/m² 0 min 0 min 0 W/m² 3,2 km/h (1 Bft) 98,28 %
11.12.2025 04:42 9,0 °C 8,3 °C 5,0 °C 95 % 1024,2 hPa 0,0 l/m² 0 min 0 min 0 W/m² 0,0 km/h (0 Bft) 100,00 %
11.12.2025 04:44 9,0 °C 8,3 °C 5,0 °C 95 % 1024,3 hPa 0,0 l/m² 0 min 0 min 0 W/m² 9,7 km/h (2 Bft) 97,50 %
11.12.2025 04:46 9,0 °C 8,3 °C 5,0 °C 95 % 1024,2 hPa 0,0 l/m² 0 min 0 min 0 W/m² 9,7 km/h (2 Bft) 100,00 %
11.12.2025 04:48 9,0 °C 8,3 °C 5,0 °C 95 % 1024,2 hPa 0,0 l/m² 0 min 0 min 0 W/m² 12,9 km/h (3 Bft) 100,00 %
11.12.2025 04:50 8,9 °C 8,3 °C 5,0 °C 95 % 1024,2 hPa 0,0 l/m² 0 min 0 min 0 W/m² 9,7 km/h (2 Bft) 97,56 %
11.12.2025 04:52 8,9 °C 8,3 °C 5,0 °C 95 % 1024,2 hPa 0,0 l/m² 0 min 0 min 0 W/m² 12,9 km/h (3 Bft) 98,21 %
11.12.2025 04:54 8,9 °C 8,3 °C 5,0 °C 95 % 1024,1 hPa 0,0 l/m² 0 min 0 min 0 W/m² 9,7 km/h (2 Bft) 97,37 %
11.12.2025 04:56 8,9 °C 8,3 °C 5,0 °C 95 % 1024,1 hPa 0,0 l/m² 0 min 0 min 0 W/m² 6,4 km/h (2 Bft) 100,00 %
11.12.2025 04:58 8,9 °C 8,3 °C 5,0 °C 95 % 1024,1 hPa 0,0 l/m² 0 min 0 min 0 W/m² 9,7 km/h (2 Bft) 100,00 %
11.12.2025 05:00 8,9 °C 8,3 °C 5,0 °C 95 % 1024,1 hPa 0,0 l/m² 0 min 0 min 0 W/m² 3,2 km/h (1 Bft) 98,21 %
11.12.2025 05:02 8,9 °C 8,3 °C 5,0 °C 95 % 1024,1 hPa 0,0 l/m² 0 min 0 min 0 W/m² 9,7 km/h (2 Bft) 100,00 %
11.12.2025 05:04 8,9 °C 8,3 °C 5,0 °C 95 % 1024,1 hPa 0,0 l/m² 0 min 0 min 0 W/m² 6,4 km/h (2 Bft) 96,43 %
11.12.2025 05:06 8,9 °C 8,3 °C 5,0 °C 95 % 1024,2 hPa 0,0 l/m² 0 min 0 min 0 W/m² 9,7 km/h (2 Bft) 100,00 %
11.12.2025 05:08 8,9 °C 8,3 °C 5,0 °C 95 % 1024,2 hPa 0,0 l/m² 0 min 0 min 0 W/m² 6,4 km/h (2 Bft) 100,00 %
11.12.2025 05:10 8,9 °C 8,3 °C 5,0 °C 95 % 1024,2 hPa 0,0 l/m² 0 min 0 min 0 W/m² 9,7 km/h (2 Bft) 100,00 %
11.12.2025 05:12 8,9 °C 7,8 °C 5,0 °C 95 % 1024,2 hPa 0,0 l/m² 0 min 0 min 0 W/m² 6,4 km/h (2 Bft) 100,00 %
11.12.2025 05:14 8,9 °C 7,8 °C 5,0 °C 95 % 1024,2 hPa 0,0 l/m² 0 min 0 min 0 W/m² 6,4 km/h (2 Bft) 93,48 %
11.12.2025 05:16 8,8 °C 7,8 °C 5,0 °C 95 % 1024,2 hPa 0,0 l/m² 0 min 0 min 0 W/m² 3,2 km/h (1 Bft) 97,92 %
11.12.2025 05:18 8,8 °C 7,8 °C 5,0 °C 95 % 1024,1 hPa 0,0 l/m² 0 min 0 min 0 W/m² 6,4 km/h (2 Bft) 97,73 %
11.12.2025 05:20 8,8 °C 7,8 °C 5,0 °C 95 % 1024,2 hPa 0,0 l/m² 0 min 0 min 0 W/m² 3,2 km/h (1 Bft) 96,00 %
11.12.2025 05:22 8,8 °C 7,8 °C 5,0 °C 95 % 1024,1 hPa 0,0 l/m² 0 min 0 min 0 W/m² 3,2 km/h (1 Bft) 97,78 %
11.12.2025 05:24 8,8 °C 7,8 °C 5,0 °C 95 % 1024,1 hPa 0,0 l/m² 0 min 0 min 0 W/m² 3,2 km/h (1 Bft) 97,96 %
11.12.2025 05:26 8,8 °C 7,8 °C 5,0 °C 95 % 1024,1 hPa 0,0 l/m² 0 min 0 min 0 W/m² 9,7 km/h (2 Bft) 95,35 %
11.12.2025 05:28 8,8 °C 7,8 °C 5,0 °C 95 % 1024,1 hPa 0,0 l/m² 0 min 0 min 0 W/m² 6,4 km/h (2 Bft) 98,00 %
11.12.2025 05:30 8,8 °C 7,8 °C 5,0 °C 95 % 1024,0 hPa 0,0 l/m² 0 min 0 min 0 W/m² 6,4 km/h (2 Bft) 97,67 %
11.12.2025 05:32 8,8 °C 7,8 °C 5,0 °C 95 % 1024,0 hPa 0,0 l/m² 0 min 0 min 0 W/m² 6,4 km/h (2 Bft) 96,08 %
11.12.2025 05:34 8,8 °C 7,8 °C 5,0 °C 95 % 1024,0 hPa 0,0 l/m² 0 min 0 min 0 W/m² 6,4 km/h (2 Bft) 97,73 %
11.12.2025 05:36 8,8 °C 7,8 °C 5,0 °C 95 % 1024,1 hPa 0,0 l/m² 0 min 0 min 0 W/m² 9,7 km/h (2 Bft) 98,00 %
11.12.2025 05:38 8,7 °C 7,8 °C 5,0 °C 95 % 1024,1 hPa 0,0 l/m² 0 min 0 min 0 W/m² 6,4 km/h (2 Bft) 97,67 %
11.12.2025 05:40 8,7 °C 7,8 °C 5,0 °C 95 % 1024,1 hPa 0,0 l/m² 0 min 0 min 0 W/m² 6,4 km/h (2 Bft) 98,04 %
11.12.2025 05:42 8,7 °C 7,8 °C 5,0 °C 95 % 1024,1 hPa 0,0 l/m² 0 min 0 min 0 W/m² 3,2 km/h (1 Bft) 97,67 %
11.12.2025 05:44 8,7 °C 7,8 °C 5,0 °C 95 % 1024,1 hPa 0,0 l/m² 0 min 0 min 0 W/m² 6,4 km/h (2 Bft) 100,00 %
11.12.2025 05:46 8,7 °C 7,8 °C 5,0 °C 95 % 1024,1 hPa 0,0 l/m² 0 min 0 min 0 W/m² 6,4 km/h (2 Bft) 100,00 %
11.12.2025 05:48 8,7 °C 7,8 °C 5,0 °C 95 % 1024,1 hPa 0,0 l/m² 0 min 0 min 0 W/m² 6,4 km/h (2 Bft) 100,00 %
11.12.2025 05:50 8,6 °C 7,8 °C 5,0 °C 95 % 1024,1 hPa 0,0 l/m² 0 min 0 min 0 W/m² 9,7 km/h (2 Bft) 97,56 %
11.12.2025 05:52 8,6 °C 7,8 °C 5,0 °C 95 % 1024,1 hPa 0,0 l/m² 0 min 0 min 0 W/m² 12,9 km/h (3 Bft) 98,08 %
11.12.2025 05:54 8,6 °C 7,8 °C 5,0 °C 95 % 1024,2 hPa 0,0 l/m² 0 min 0 min 0 W/m² 12,9 km/h (3 Bft) 100,00 %
11.12.2025 05:56 8,6 °C 7,8 °C 5,0 °C 95 % 1024,2 hPa 0,0 l/m² 0 min 0 min 0 W/m² 6,4 km/h (2 Bft) 98,08 %
11.12.2025 05:58 8,6 °C 7,8 °C 5,0 °C 95 % 1024,2 hPa 0,0 l/m² 0 min 0 min 0 W/m² 3,2 km/h (1 Bft) 97,62 %
11.12.2025 06:00 8,6 °C 7,8 °C 5,0 °C 95 % 1024,1 hPa 0,0 l/m² 0 min 0 min 0 W/m² 9,7 km/h (2 Bft) 98,08 %
11.12.2025 06:02 8,6 °C 7,8 °C 5,0 °C 95 % 1024,2 hPa 0,0 l/m² 0 min 0 min 0 W/m² 3,2 km/h (1 Bft) 100,00 %
11.12.2025 06:04 8,6 °C 7,8 °C 5,0 °C 95 % 1024,2 hPa 0,0 l/m² 0 min 0 min 0 W/m² 6,4 km/h (2 Bft) 98,11 %
11.12.2025 06:08 8,5 °C 7,8 °C 4,4 °C 95 % 1024,1 hPa 0,0 l/m² 0 min 0 min 0 W/m² 6,4 km/h (2 Bft) 98,94 %
11.12.2025 06:10 8,5 °C 7,8 °C 4,4 °C 95 % 1024,1 hPa 0,0 l/m² 0 min 0 min 0 W/m² 6,4 km/h (2 Bft) 97,37 %
11.12.2025 06:12 8,4 °C 7,2 °C 4,4 °C 95 % 1024,1 hPa 0,0 l/m² 0 min 0 min 0 W/m² 6,4 km/h (2 Bft) 96,36 %
11.12.2025 06:14 8,4 °C 7,2 °C 4,4 °C 95 % 1024,1 hPa 0,0 l/m² 0 min 0 min 0 W/m² 3,2 km/h (1 Bft) 97,44 %
11.12.2025 06:16 8,4 °C 7,2 °C 4,4 °C 95 % 1024,1 hPa 0,0 l/m² 0 min 0 min 0 W/m² 3,2 km/h (1 Bft) 98,18 %
11.12.2025 06:18 8,4 °C 7,2 °C 4,4 °C 95 % 1024,1 hPa 0,0 l/m² 0 min 0 min 0 W/m² 3,2 km/h (1 Bft) 97,37 %
11.12.2025 06:20 8,4 °C 7,2 °C 4,4 °C 95 % 1024,1 hPa 0,0 l/m² 0 min 0 min 0 W/m² 6,4 km/h (2 Bft) 98,18 %
11.12.2025 06:22 8,4 °C 7,2 °C 4,4 °C 95 % 1024,0 hPa 0,0 l/m² 0 min 0 min 0 W/m² 9,7 km/h (2 Bft) 94,87 %
11.12.2025 06:24 8,3 °C 7,2 °C 4,4 °C 95 % 1024,0 hPa 0,0 l/m² 0 min 0 min 0 W/m² 6,4 km/h (2 Bft) 94,44 %
11.12.2025 06:26 8,3 °C 7,2 °C 4,4 °C 95 % 1024,0 hPa 0,0 l/m² 0 min 0 min 0 W/m² 9,7 km/h (2 Bft) 97,50 %
11.12.2025 06:28 8,3 °C 7,8 °C 4,4 °C 95 % 1024,0 hPa 0,0 l/m² 0 min 0 min 0 W/m² 6,4 km/h (2 Bft) 93,62 %
11.12.2025 06:30 8,3 °C 7,8 °C 4,4 °C 95 % 1024,0 hPa 0,0 l/m² 0 min 0 min 0 W/m² 6,4 km/h (2 Bft) 95,74 %
11.12.2025 06:32 8,3 °C 7,8 °C 4,4 °C 95 % 1024,0 hPa 0,0 l/m² 0 min 0 min 0 W/m² 9,7 km/h (2 Bft) 96,00 %
11.12.2025 06:34 8,3 °C 7,8 °C 4,4 °C 95 % 1024,0 hPa 0,0 l/m² 0 min 0 min 0 W/m² 6,4 km/h (2 Bft) 93,33 %
11.12.2025 06:36 8,3 °C 7,8 °C 4,4 °C 95 % 1024,0 hPa 0,0 l/m² 0 min 0 min 0 W/m² 3,2 km/h (1 Bft) 95,92 %
11.12.2025 06:38 8,3 °C 7,8 °C 4,4 °C 95 % 1023,9 hPa 0,0 l/m² 0 min 0 min 0 W/m² 6,4 km/h (2 Bft) 95,74 %
11.12.2025 06:40 8,3 °C 7,8 °C 4,4 °C 95 % 1024,0 hPa 0,0 l/m² 0 min 0 min 0 W/m² 0,0 km/h (0 Bft) 95,74 %
11.12.2025 06:42 8,3 °C 7,8 °C 4,4 °C 95 % 1024,0 hPa 0,0 l/m² 0 min 0 min 0 W/m² 3,2 km/h (1 Bft) 94,44 %
11.12.2025 06:44 8,3 °C 7,8 °C 4,4 °C 95 % 1024,0 hPa 0,0 l/m² 0 min 0 min 0 W/m² 0,0 km/h (0 Bft) 94,59 %
11.12.2025 06:46 8,3 °C 7,8 °C 4,4 °C 95 % 1024,1 hPa 0,0 l/m² 0 min 0 min 0 W/m² 6,4 km/h (2 Bft) 91,84 %
11.12.2025 06:48 8,3 °C 7,8 °C 4,4 °C 95 % 1024,1 hPa 0,0 l/m² 0 min 0 min 0 W/m² 0,0 km/h (0 Bft) 93,62 %
11.12.2025 06:50 8,3 °C 7,8 °C 4,4 °C 95 % 1024,2 hPa 0,0 l/m² 0 min 0 min 0 W/m² 0,0 km/h (0 Bft) 93,62 %
11.12.2025 06:52 8,3 °C 7,8 °C 5,0 °C 95 % 1024,1 hPa 0,0 l/m² 0 min 0 min 0 W/m² 0,0 km/h (0 Bft) 95,45 %
11.12.2025 06:54 8,3 °C 7,8 °C 5,0 °C 95 % 1024,2 hPa 0,0 l/m² 0 min 0 min 0 W/m² 0,0 km/h (0 Bft) 96,00 %
11.12.2025 06:56 8,3 °C 7,8 °C 5,0 °C 95 % 1024,2 hPa 0,0 l/m² 0 min 0 min 0 W/m² 3,2 km/h (1 Bft) 97,87 %
11.12.2025 06:58 8,3 °C 7,8 °C 5,0 °C 96 % 1024,3 hPa 0,0 l/m² 0 min 0 min 0 W/m² 0,0 km/h (0 Bft) 97,87 %
11.12.2025 07:00 8,3 °C 7,8 °C 5,0 °C 96 % 1024,2 hPa 0,0 l/m² 0 min 0 min 0 W/m² 3,2 km/h (1 Bft) 98,11 %
11.12.2025 07:02 8,3 °C 7,8 °C 5,0 °C 96 % 1024,2 hPa 0,0 l/m² 0 min 0 min 0 W/m² 6,4 km/h (2 Bft) 97,44 %
11.12.2025 07:04 8,3 °C 7,8 °C 5,0 °C 96 % 1024,1 hPa 0,0 l/m² 0 min 0 min 0 W/m² 3,2 km/h (1 Bft) 97,96 %
11.12.2025 07:08 8,3 °C 7,8 °C 5,0 °C 96 % 1024,2 hPa 0,0 l/m² 0 min 0 min 0 W/m² 3,2 km/h (1 Bft) 94,79 %
11.12.2025 07:10 8,3 °C 7,8 °C 5,0 °C 96 % 1024,2 hPa 0,0 l/m² 0 min 0 min 0 W/m² 3,2 km/h (1 Bft) 47,37 %
11.12.2025 07:12 8,3 °C 7,8 °C 5,0 °C 96 % 1024,2 hPa 0,0 l/m² 0 min 0 min 0 W/m² 3,2 km/h (1 Bft) 97,83 %
11.12.2025 07:14 8,3 °C 7,8 °C 5,0 °C 96 % 1024,3 hPa 0,0 l/m² 0 min 0 min 0 W/m² 6,4 km/h (2 Bft) 95,83 %
11.12.2025 07:16 8,3 °C 7,8 °C 4,4 °C 96 % 1024,3 hPa 0,0 l/m² 0 min 0 min 0 W/m² 3,2 km/h (1 Bft) 97,87 %
11.12.2025 07:18 8,3 °C 7,8 °C 4,4 °C 96 % 1024,2 hPa 0,0 l/m² 0 min 0 min 0 W/m² 6,4 km/h (2 Bft) 97,22 %
11.12.2025 07:20 8,3 °C 7,8 °C 4,4 °C 96 % 1024,3 hPa 0,0 l/m² 0 min 0 min 0 W/m² 9,7 km/h (2 Bft) 96,43 %
11.12.2025 07:22 8,3 °C 7,8 °C 4,4 °C 96 % 1024,3 hPa 0,0 l/m² 0 min 0 min 0 W/m² 6,4 km/h (2 Bft) 97,37 %
11.12.2025 07:24 8,3 °C 7,8 °C 4,4 °C 96 % 1024,3 hPa 0,0 l/m² 0 min 0 min 0 W/m² 3,2 km/h (1 Bft) 96,36 %
11.12.2025 07:26 8,3 °C 7,8 °C 4,4 °C 96 % 1024,3 hPa 0,0 l/m² 0 min 0 min 0 W/m² 0,0 km/h (0 Bft) 98,04 %
11.12.2025 07:28 8,3 °C 7,8 °C 4,4 °C 96 % 1024,4 hPa 0,0 l/m² 0 min 0 min 0 W/m² 0,0 km/h (0 Bft) 97,14 %
11.12.2025 07:30 8,3 °C 7,8 °C 4,4 °C 96 % 1024,4 hPa 0,0 l/m² 0 min 0 min 0 W/m² 0,0 km/h (0 Bft) 96,49 %
11.12.2025 07:32 8,3 °C 7,8 °C 4,4 °C 96 % 1024,4 hPa 0,0 l/m² 0 min 0 min 0 W/m² 0,0 km/h (0 Bft) 97,22 %
11.12.2025 07:34 8,3 °C 7,8 °C 4,4 °C 96 % 1024,4 hPa 0,0 l/m² 0 min 0 min 0 W/m² 3,2 km/h (1 Bft) 98,25 %
11.12.2025 07:36 8,3 °C 7,8 °C 5,0 °C 96 % 1024,4 hPa 0,0 l/m² 0 min 0 min 0 W/m² 3,2 km/h (1 Bft) 100,00 %
11.12.2025 07:38 8,3 °C 7,8 °C 5,0 °C 96 % 1024,5 hPa 0,0 l/m² 0 min 0 min 0 W/m² 3,2 km/h (1 Bft) 96,30 %
11.12.2025 07:40 8,3 °C 7,8 °C 5,0 °C 96 % 1024,5 hPa 0,0 l/m² 0 min 0 min 0 W/m² 3,2 km/h (1 Bft) 97,14 %
11.12.2025 07:42 8,3 °C 7,8 °C 5,0 °C 96 % 1024,6 hPa 0,0 l/m² 0 min 0 min 0 W/m² 3,2 km/h (1 Bft) 100,00 %
11.12.2025 07:44 8,3 °C 7,8 °C 5,0 °C 96 % 1024,5 hPa 0,0 l/m² 0 min 0 min 0 W/m² 3,2 km/h (1 Bft) 97,83 %
11.12.2025 07:46 8,3 °C 7,8 °C 5,0 °C 96 % 1024,5 hPa 0,0 l/m² 0 min 0 min 0 W/m² 0,0 km/h (0 Bft) 100,00 %
11.12.2025 07:48 8,3 °C 7,8 °C 5,0 °C 96 % 1024,5 hPa 0,0 l/m² 0 min 0 min 0 W/m² 0,0 km/h (0 Bft) 97,87 %
11.12.2025 07:50 8,3 °C 7,8 °C 5,0 °C 96 % 1024,6 hPa 0,0 l/m² 0 min 0 min 0 W/m² 0,0 km/h (0 Bft) 98,00 %
11.12.2025 07:52 8,3 °C 7,8 °C 5,0 °C 96 % 1024,6 hPa 0,0 l/m² 0 min 0 min 0 W/m² 0,0 km/h (0 Bft) 97,78 %
11.12.2025 07:54 8,3 °C 7,8 °C 5,0 °C 96 % 1024,6 hPa 0,0 l/m² 0 min 0 min 0 W/m² 0,0 km/h (0 Bft) 100,00 %
11.12.2025 07:56 8,3 °C 7,8 °C 5,0 °C 96 % 1024,7 hPa 0,0 l/m² 0 min 0 min 0 W/m² 3,2 km/h (1 Bft) 100,00 %
11.12.2025 07:58 8,3 °C 7,8 °C 5,0 °C 96 % 1024,7 hPa 0,0 l/m² 0 min 0 min 0 W/m² 6,4 km/h (2 Bft) 100,00 %
11.12.2025 08:00 8,3 °C 7,2 °C 4,4 °C 96 % 1024,7 hPa 0,0 l/m² 0 min 0 min 0 W/m² 9,7 km/h (2 Bft) 100,00 %
11.12.2025 08:02 8,2 °C 7,2 °C 4,4 °C 96 % 1024,7 hPa 0,0 l/m² 0 min 0 min 0 W/m² 6,4 km/h (2 Bft) 97,67 %
11.12.2025 08:04 8,2 °C 7,2 °C 4,4 °C 96 % 1024,7 hPa 0,0 l/m² 0 min 0 min 0 W/m² 9,7 km/h (2 Bft) 100,00 %
11.12.2025 08:06 8,2 °C 7,2 °C 4,4 °C 96 % 1024,6 hPa 0,0 l/m² 0 min 0 min 0 W/m² 6,4 km/h (2 Bft) 100,00 %
11.12.2025 08:08 8,2 °C 7,2 °C 4,4 °C 96 % 1024,6 hPa 0,0 l/m² 0 min 0 min 0 W/m² 6,4 km/h (2 Bft) 100,00 %
11.12.2025 08:10 8,2 °C 7,2 °C 4,4 °C 96 % 1024,6 hPa 0,0 l/m² 0 min 0 min 0 W/m² 6,4 km/h (2 Bft) 100,00 %
11.12.2025 08:12 8,1 °C 7,2 °C 4,4 °C 96 % 1024,7 hPa 0,0 l/m² 0 min 0 min 0 W/m² 6,4 km/h (2 Bft) 100,00 %
11.12.2025 08:14 8,1 °C 7,2 °C 4,4 °C 96 % 1024,7 hPa 0,0 l/m² 0 min 0 min 0 W/m² 6,4 km/h (2 Bft) 100,00 %
11.12.2025 08:16 8,1 °C 7,2 °C 4,4 °C 96 % 1024,7 hPa 0,0 l/m² 0 min 0 min 0 W/m² 6,4 km/h (2 Bft) 98,15 %
11.12.2025 08:18 8,1 °C 7,2 °C 4,4 °C 96 % 1024,8 hPa 0,0 l/m² 0 min 0 min 0 W/m² 6,4 km/h (2 Bft) 100,00 %
11.12.2025 08:20 8,1 °C 7,2 °C 4,4 °C 96 % 1024,8 hPa 0,0 l/m² 0 min 0 min 0 W/m² 6,4 km/h (2 Bft) 97,73 %
11.12.2025 08:22 8,1 °C 7,2 °C 4,4 °C 96 % 1024,8 hPa 0,0 l/m² 0 min 0 min 0 W/m² 3,2 km/h (1 Bft) 100,00 %
11.12.2025 08:24 8,0 °C 7,2 °C 4,4 °C 96 % 1024,9 hPa 0,0 l/m² 0 min 0 min 0 W/m² 6,4 km/h (2 Bft) 100,00 %
11.12.2025 08:26 8,0 °C 7,2 °C 4,4 °C 96 % 1024,9 hPa 0,0 l/m² 0 min 0 min 0 W/m² 6,4 km/h (2 Bft) 100,00 %
11.12.2025 08:28 8,0 °C 7,2 °C 4,4 °C 96 % 1024,8 hPa 0,0 l/m² 0 min 0 min 0 W/m² 6,4 km/h (2 Bft) 97,78 %
11.12.2025 08:30 8,0 °C 7,2 °C 4,4 °C 96 % 1024,9 hPa 0,0 l/m² 0 min 0 min 0 W/m² 16,1 km/h (3 Bft) 97,44 %
11.12.2025 08:32 8,0 °C 7,2 °C 4,4 °C 96 % 1024,9 hPa 0,0 l/m² 0 min 0 min 0 W/m² 3,2 km/h (1 Bft) 100,00 %
11.12.2025 08:34 7,9 °C 7,2 °C 4,4 °C 96 % 1024,9 hPa 0,0 l/m² 0 min 0 min 5 W/m² 12,9 km/h (3 Bft) 97,83 %
11.12.2025 08:36 7,9 °C 7,2 °C 4,4 °C 96 % 1024,9 hPa 0,0 l/m² 0 min 0 min 5 W/m² 6,4 km/h (2 Bft) 51,16 %
11.12.2025 08:38 7,9 °C 7,2 °C 4,4 °C 96 % 1025,0 hPa 0,0 l/m² 0 min 0 min 5 W/m² 9,7 km/h (2 Bft) 97,44 %
11.12.2025 08:40 7,9 °C 7,2 °C 4,4 °C 96 % 1024,9 hPa 0,0 l/m² 0 min 0 min 7 W/m² 6,4 km/h (2 Bft) 96,55 %
11.12.2025 08:42 7,9 °C 7,2 °C 4,4 °C 96 % 1024,9 hPa 0,0 l/m² 0 min 0 min 7 W/m² 6,4 km/h (2 Bft) 97,78 %
11.12.2025 08:44 7,9 °C 7,2 °C 4,4 °C 96 % 1024,9 hPa 0,0 l/m² 0 min 0 min 8 W/m² 6,4 km/h (2 Bft) 97,78 %
11.12.2025 08:46 7,9 °C 7,2 °C 4,4 °C 96 % 1024,9 hPa 0,0 l/m² 0 min 0 min 10 W/m² 12,9 km/h (3 Bft) 97,44 %
11.12.2025 08:48 7,9 °C 7,2 °C 4,4 °C 96 % 1024,9 hPa 0,0 l/m² 0 min 0 min 11 W/m² 6,4 km/h (2 Bft) 97,87 %
11.12.2025 08:50 7,9 °C 7,2 °C 4,4 °C 96 % 1024,9 hPa 0,0 l/m² 0 min 0 min 11 W/m² 6,4 km/h (2 Bft) 98,31 %
11.12.2025 08:52 7,8 °C 7,2 °C 4,4 °C 96 % 1025,0 hPa 0,0 l/m² 0 min 0 min 12 W/m² 9,7 km/h (2 Bft) 97,78 %
11.12.2025 08:54 7,8 °C 6,7 °C 4,4 °C 96 % 1025,0 hPa 0,0 l/m² 0 min 0 min 12 W/m² 6,4 km/h (2 Bft) 97,78 %
11.12.2025 08:56 7,8 °C 6,7 °C 3,9 °C 96 % 1025,0 hPa 0,0 l/m² 0 min 0 min 14 W/m² 3,2 km/h (1 Bft) 94,87 %
11.12.2025 08:58 7,8 °C 6,7 °C 3,9 °C 96 % 1025,0 hPa 0,0 l/m² 0 min 0 min 15 W/m² 6,4 km/h (2 Bft) 95,74 %
11.12.2025 09:00 7,7 °C 6,7 °C 3,9 °C 96 % 1025,0 hPa 0,0 l/m² 0 min 0 min 16 W/m² 6,4 km/h (2 Bft) 96,55 %
11.12.2025 09:02 7,7 °C 6,7 °C 3,9 °C 95 % 1025,0 hPa 0,0 l/m² 0 min 0 min 16 W/m² 9,7 km/h (2 Bft) 93,18 %
11.12.2025 09:04 7,7 °C 6,7 °C 3,9 °C 95 % 1025,0 hPa 0,0 l/m² 0 min 0 min 17 W/m² 6,4 km/h (2 Bft) 95,12 %
11.12.2025 09:07 7,6 °C 6,7 °C 3,9 °C 95 % 1025,0 hPa 0,0 l/m² 0 min 0 min 17 W/m² 6,4 km/h (2 Bft) 94,29 %
11.12.2025 09:08 7,6 °C 6,7 °C 3,9 °C 95 % 1025,0 hPa 0,0 l/m² 0 min 0 min 16 W/m² 3,2 km/h (1 Bft) 100,00 %
11.12.2025 09:12 7,5 °C 6,7 °C 3,9 °C 95 % 1025,1 hPa 0,0 l/m² 0 min 0 min 20 W/m² 9,7 km/h (2 Bft) 93,10 %
11.12.2025 09:14 7,4 °C 6,7 °C 3,9 °C 95 % 1025,0 hPa 0,0 l/m² 0 min 0 min 24 W/m² 6,4 km/h (2 Bft) 95,35 %
11.12.2025 09:16 7,4 °C 6,7 °C 3,9 °C 95 % 1025,1 hPa 0,0 l/m² 0 min 0 min 29 W/m² 9,7 km/h (2 Bft) 95,65 %
11.12.2025 09:18 7,4 °C 6,7 °C 3,9 °C 95 % 1025,1 hPa 0,0 l/m² 0 min 0 min 26 W/m² 6,4 km/h (2 Bft) 95,74 %
11.12.2025 09:20 7,4 °C 6,7 °C 3,9 °C 96 % 1025,1 hPa 0,0 l/m² 0 min 0 min 23 W/m² 3,2 km/h (1 Bft) 97,56 %
11.12.2025 09:22 7,4 °C 6,7 °C 3,9 °C 96 % 1025,1 hPa 0,0 l/m² 0 min 0 min 25 W/m² 6,4 km/h (2 Bft) 97,87 %
11.12.2025 09:24 7,4 °C 6,7 °C 3,9 °C 96 % 1025,1 hPa 0,0 l/m² 0 min 0 min 26 W/m² 6,4 km/h (2 Bft) 94,64 %
11.12.2025 09:26 7,4 °C 7,2 °C 3,9 °C 96 % 1025,1 hPa 0,0 l/m² 0 min 0 min 26 W/m² 12,9 km/h (3 Bft) 97,73 %
11.12.2025 09:28 7,4 °C 7,2 °C 3,9 °C 96 % 1025,1 hPa 0,0 l/m² 0 min 0 min 30 W/m² 6,4 km/h (2 Bft) 97,56 %
11.12.2025 09:30 7,4 °C 7,2 °C 4,4 °C 96 % 1025,1 hPa 0,0 l/m² 0 min 0 min 30 W/m² 12,9 km/h (3 Bft) 97,87 %
11.12.2025 09:32 7,5 °C 7,2 °C 4,4 °C 96 % 1025,1 hPa 0,0 l/m² 0 min 0 min 30 W/m² 9,7 km/h (2 Bft) 95,45 %
11.12.2025 09:34 7,6 °C 7,2 °C 4,4 °C 96 % 1025,0 hPa 0,0 l/m² 0 min 0 min 33 W/m² 12,9 km/h (3 Bft) 96,43 %
11.12.2025 09:36 7,6 °C 7,8 °C 4,4 °C 96 % 1025,1 hPa 0,0 l/m² 0 min 0 min 37 W/m² 6,4 km/h (2 Bft) 97,50 %
11.12.2025 09:38 7,7 °C 7,8 °C 4,4 °C 96 % 1025,1 hPa 0,0 l/m² 0 min 0 min 38 W/m² 6,4 km/h (2 Bft) 95,74 %
11.12.2025 09:40 7,7 °C 7,8 °C 4,4 °C 96 % 1025,1 hPa 0,0 l/m² 0 min 0 min 39 W/m² 9,7 km/h (2 Bft) 94,44 %
11.12.2025 09:42 7,7 °C 7,8 °C 4,4 °C 96 % 1025,1 hPa 0,0 l/m² 0 min 0 min 43 W/m² 6,4 km/h (2 Bft) 97,50 %
11.12.2025 09:44 7,8 °C 7,8 °C 5,0 °C 96 % 1025,1 hPa 0,0 l/m² 0 min 0 min 43 W/m² 0,0 km/h (0 Bft) 97,87 %
11.12.2025 09:46 7,8 °C 7,8 °C 5,0 °C 96 % 1025,2 hPa 0,0 l/m² 0 min 0 min 42 W/m² 0,0 km/h (0 Bft) 95,65 %
11.12.2025 09:48 7,8 °C 7,8 °C 5,0 °C 96 % 1025,1 hPa 0,0 l/m² 0 min 0 min 40 W/m² 0,0 km/h (0 Bft) 98,21 %
11.12.2025 09:50 7,8 °C 7,8 °C 5,0 °C 96 % 1025,2 hPa 0,0 l/m² 0 min 0 min 43 W/m² 6,4 km/h (2 Bft) 97,44 %
11.12.2025 09:52 7,8 °C 7,8 °C 5,0 °C 96 % 1025,3 hPa 0,0 l/m² 0 min 0 min 44 W/m² 3,2 km/h (1 Bft) 97,87 %
11.12.2025 09:54 7,9 °C 7,8 °C 5,0 °C 96 % 1025,3 hPa 0,0 l/m² 0 min 0 min 43 W/m² 3,2 km/h (1 Bft) 97,83 %
11.12.2025 09:56 7,9 °C 7,8 °C 5,0 °C 96 % 1025,4 hPa 0,0 l/m² 0 min 0 min 42 W/m² 3,2 km/h (1 Bft) 95,45 %
11.12.2025 09:58 7,9 °C 7,8 °C 5,0 °C 96 % 1025,3 hPa 0,0 l/m² 0 min 0 min 39 W/m² 6,4 km/h (2 Bft) 96,00 %
11.12.2025 10:00 7,9 °C 7,8 °C 5,0 °C 96 % 1025,4 hPa 0,0 l/m² 0 min 0 min 40 W/m² 9,7 km/h (2 Bft) 95,45 %
11.12.2025 10:02 8,0 °C 7,8 °C 5,0 °C 96 % 1025,4 hPa 0,0 l/m² 0 min 0 min 42 W/m² 3,2 km/h (1 Bft) 95,74 %
11.12.2025 10:04 8,1 °C 8,3 °C 5,0 °C 96 % 1025,3 hPa 0,0 l/m² 0 min 0 min 42 W/m² 12,9 km/h (3 Bft) 95,83 %
11.12.2025 10:06 8,1 °C 8,3 °C 5,0 °C 97 % 1025,4 hPa 0,0 l/m² 0 min 0 min 42 W/m² 9,7 km/h (2 Bft) 98,04 %
11.12.2025 10:08 8,1 °C 8,3 °C 5,0 °C 96 % 1025,4 hPa 0,0 l/m² 0 min 0 min 46 W/m² 6,4 km/h (2 Bft) 97,87 %
11.12.2025 10:10 8,2 °C 8,3 °C 5,0 °C 96 % 1025,3 hPa 0,0 l/m² 0 min 0 min 47 W/m² 9,7 km/h (2 Bft) 97,87 %
11.12.2025 10:12 8,2 °C 8,3 °C 5,0 °C 96 % 1025,4 hPa 0,0 l/m² 0 min 0 min 46 W/m² 6,4 km/h (2 Bft) 97,78 %
11.12.2025 10:14 8,3 °C 8,3 °C 5,0 °C 96 % 1025,3 hPa 0,0 l/m² 0 min 0 min 49 W/m² 12,9 km/h (3 Bft) 100,00 %
11.12.2025 10:16 8,3 °C 8,3 °C 5,0 °C 96 % 1025,4 hPa 0,0 l/m² 0 min 0 min 53 W/m² 9,7 km/h (2 Bft) 100,00 %
11.12.2025 10:18 8,3 °C 8,3 °C 5,6 °C 97 % 1025,3 hPa 0,0 l/m² 0 min 0 min 53 W/m² 6,4 km/h (2 Bft) 100,00 %
11.12.2025 10:20 8,3 °C 8,3 °C 5,6 °C 97 % 1025,3 hPa 0,0 l/m² 0 min 0 min 53 W/m² 6,4 km/h (2 Bft) 100,00 %
11.12.2025 10:22 8,3 °C 8,3 °C 5,6 °C 97 % 1025,3 hPa 0,0 l/m² 0 min 0 min 55 W/m² 9,7 km/h (2 Bft) 95,83 %
11.12.2025 10:24 8,4 °C 8,3 °C 5,6 °C 97 % 1025,3 hPa 0,0 l/m² 0 min 0 min 64 W/m² 9,7 km/h (2 Bft) 100,00 %
11.12.2025 10:26 8,4 °C 8,3 °C 5,6 °C 97 % 1025,3 hPa 0,0 l/m² 0 min 0 min 64 W/m² 12,9 km/h (3 Bft) 100,00 %
11.12.2025 10:28 8,4 °C 8,3 °C 5,6 °C 97 % 1025,3 hPa 0,0 l/m² 0 min 0 min 67 W/m² 9,7 km/h (2 Bft) 100,00 %
11.12.2025 10:30 8,4 °C 8,3 °C 5,6 °C 97 % 1025,4 hPa 0,0 l/m² 0 min 0 min 70 W/m² 9,7 km/h (2 Bft) 100,00 %
11.12.2025 10:32 8,4 °C 8,9 °C 5,6 °C 97 % 1025,4 hPa 0,0 l/m² 0 min 0 min 74 W/m² 6,4 km/h (2 Bft) 100,00 %
11.12.2025 10:34 8,5 °C 8,9 °C 5,6 °C 96 % 1025,4 hPa 0,0 l/m² 0 min 0 min 78 W/m² 12,9 km/h (3 Bft) 97,87 %
11.12.2025 10:36 8,5 °C 8,9 °C 5,6 °C 96 % 1025,4 hPa 0,0 l/m² 0 min 0 min 75 W/m² 6,4 km/h (2 Bft) 100,00 %
11.12.2025 10:38 8,5 °C 8,9 °C 5,6 °C 96 % 1025,4 hPa 0,0 l/m² 0 min 0 min 72 W/m² 3,2 km/h (1 Bft) 97,73 %
11.12.2025 10:40 8,6 °C 8,9 °C 5,6 °C 96 % 1025,5 hPa 0,0 l/m² 0 min 0 min 74 W/m² 6,4 km/h (2 Bft) 100,00 %
11.12.2025 10:42 8,6 °C 8,9 °C 5,6 °C 96 % 1025,5 hPa 0,0 l/m² 0 min 0 min 75 W/m² 6,4 km/h (2 Bft) 100,00 %
11.12.2025 10:44 8,6 °C 8,9 °C 5,6 °C 96 % 1025,4 hPa 0,0 l/m² 0 min 0 min 77 W/m² 9,7 km/h (2 Bft) 100,00 %
11.12.2025 10:46 8,6 °C 8,9 °C 5,6 °C 96 % 1025,4 hPa 0,0 l/m² 0 min 0 min 77 W/m² 12,9 km/h (3 Bft) 100,00 %
11.12.2025 10:48 8,6 °C 8,9 °C 5,6 °C 96 % 1025,4 hPa 0,0 l/m² 0 min 0 min 84 W/m² 6,4 km/h (2 Bft) 94,83 %
11.12.2025 10:50 8,6 °C 8,9 °C 5,6 °C 96 % 1025,4 hPa 0,0 l/m² 0 min 0 min 92 W/m² 12,9 km/h (3 Bft) 97,87 %
11.12.2025 10:52 8,6 °C 8,9 °C 5,6 °C 96 % 1025,3 hPa 0,0 l/m² 0 min 0 min 96 W/m² 6,4 km/h (2 Bft) 95,45 %
11.12.2025 10:54 8,7 °C 8,9 °C 5,6 °C 96 % 1025,4 hPa 0,0 l/m² 0 min 0 min 93 W/m² 12,9 km/h (3 Bft) 97,78 %
11.12.2025 10:56 8,7 °C 8,9 °C 5,6 °C 97 % 1025,4 hPa 0,0 l/m² 0 min 0 min 92 W/m² 12,9 km/h (3 Bft) 97,50 %
11.12.2025 10:58 8,7 °C 9,4 °C 5,6 °C 97 % 1025,4 hPa 0,0 l/m² 0 min 0 min 94 W/m² 6,4 km/h (2 Bft) 98,31 %
11.12.2025 11:00 8,7 °C 9,4 °C 5,6 °C 97 % 1025,3 hPa 0,0 l/m² 0 min 0 min 107 W/m² 6,4 km/h (2 Bft) 97,87 %
11.12.2025 11:02 8,7 °C 9,4 °C 6,1 °C 97 % 1025,3 hPa 0,0 l/m² 0 min 0 min 121 W/m² 9,7 km/h (2 Bft) 97,83 %
11.12.2025 11:04 8,8 °C 9,4 °C 6,1 °C 96 % 1025,3 hPa 0,0 l/m² 0 min 0 min 127 W/m² 9,7 km/h (2 Bft) 93,33 %
11.12.2025 11:06 8,8 °C 9,4 °C 6,1 °C 96 % 1025,3 hPa 0,0 l/m² 0 min 0 min 130 W/m² 6,4 km/h (2 Bft) 97,50 %
11.12.2025 11:08 8,8 °C 10,0 °C 6,1 °C 96 % 1025,3 hPa 0,0 l/m² 2 min 0 min 161 W/m² 6,4 km/h (2 Bft) 97,87 %
11.12.2025 11:10 8,8 °C 10,0 °C 6,1 °C 96 % 1025,3 hPa 0,0 l/m² 2 min 0 min 170 W/m² 6,4 km/h (2 Bft) 97,87 %
11.12.2025 11:12 8,9 °C 10,6 °C 6,1 °C 96 % 1025,3 hPa 0,0 l/m² 2 min 0 min 173 W/m² 6,4 km/h (2 Bft) 96,55 %
11.12.2025 11:14 8,9 °C 10,6 °C 6,7 °C 96 % 1025,3 hPa 0,0 l/m² 2 min 0 min 203 W/m² 9,7 km/h (2 Bft) 93,33 %
11.12.2025 11:16 9,0 °C 11,1 °C 6,7 °C 97 % 1025,3 hPa 0,0 l/m² 2 min 0 min 203 W/m² 6,4 km/h (2 Bft) 95,56 %
11.12.2025 11:18 9,1 °C 11,1 °C 6,7 °C 97 % 1025,3 hPa 0,0 l/m² 2 min 0 min 278 W/m² 6,4 km/h (2 Bft) 94,87 %
11.12.2025 11:20 9,2 °C 11,1 °C 6,7 °C 97 % 1025,3 hPa 0,0 l/m² 2 min 0 min 244 W/m² 6,4 km/h (2 Bft) 95,74 %
11.12.2025 11:22 9,2 °C 11,1 °C 6,7 °C 96 % 1025,3 hPa 0,0 l/m² 2 min 0 min 223 W/m² 9,7 km/h (2 Bft) 93,62 %
11.12.2025 11:24 9,3 °C 11,1 °C 6,7 °C 96 % 1025,3 hPa 0,0 l/m² 2 min 0 min 297 W/m² 9,7 km/h (2 Bft) 94,83 %
11.12.2025 11:26 9,3 °C 10,6 °C 6,7 °C 97 % 1025,2 hPa 0,0 l/m² 2 min 0 min 235 W/m² 9,7 km/h (2 Bft) 97,67 %
11.12.2025 11:28 9,4 °C 10,6 °C 6,7 °C 96 % 1025,3 hPa 0,0 l/m² 0 min 0 min 136 W/m² 6,4 km/h (2 Bft) 100,00 %
11.12.2025 11:30 9,5 °C 11,1 °C 6,7 °C 96 % 1025,2 hPa 0,0 l/m² 2 min 0 min 310 W/m² 9,7 km/h (2 Bft) 95,74 %
11.12.2025 11:32 9,6 °C 11,1 °C 6,7 °C 96 % 1025,2 hPa 0,0 l/m² 2 min 0 min 243 W/m² 12,9 km/h (3 Bft) 97,87 %
11.12.2025 11:34 9,6 °C 11,1 °C 6,7 °C 96 % 1025,1 hPa 0,0 l/m² 2 min 0 min 166 W/m² 6,4 km/h (2 Bft) 93,62 %
11.12.2025 11:36 9,7 °C 11,1 °C 6,7 °C 96 % 1025,1 hPa 0,0 l/m² 2 min 0 min 162 W/m² 3,2 km/h (1 Bft) 98,21 %
11.12.2025 11:38 9,7 °C 11,1 °C 6,7 °C 96 % 1025,1 hPa 0,0 l/m² 2 min 0 min 184 W/m² 12,9 km/h (3 Bft) 97,78 %
11.12.2025 11:40 9,8 °C 11,1 °C 6,7 °C 96 % 1025,0 hPa 0,0 l/m² 2 min 0 min 177 W/m² 6,4 km/h (2 Bft) 92,31 %
11.12.2025 11:42 9,9 °C 11,1 °C 6,7 °C 96 % 1025,0 hPa 0,0 l/m² 0 min 0 min 105 W/m² 6,4 km/h (2 Bft) 95,74 %
11.12.2025 11:44 9,9 °C 11,1 °C 6,7 °C 96 % 1025,1 hPa 0,0 l/m² 0 min 0 min 83 W/m² 6,4 km/h (2 Bft) 98,28 %
11.12.2025 11:46 9,9 °C 10,6 °C 6,7 °C 95 % 1025,1 hPa 0,0 l/m² 0 min 0 min 84 W/m² 6,4 km/h (2 Bft) 97,73 %
11.12.2025 11:48 10,0 °C 10,6 °C 6,7 °C 95 % 1025,1 hPa 0,0 l/m² 0 min 0 min 82 W/m² 9,7 km/h (2 Bft) 97,44 %
11.12.2025 11:50 10,1 °C 10,6 °C 6,7 °C 95 % 1025,0 hPa 0,0 l/m² 0 min 0 min 101 W/m² 6,4 km/h (2 Bft) 97,87 %
11.12.2025 11:52 10,1 °C 10,6 °C 6,7 °C 95 % 1025,0 hPa 0,0 l/m² 0 min 0 min 107 W/m² 12,9 km/h (3 Bft) 95,65 %
11.12.2025 11:54 10,1 °C 10,6 °C 6,7 °C 94 % 1025,0 hPa 0,0 l/m² 0 min 0 min 125 W/m² 6,4 km/h (2 Bft) 95,74 %
11.12.2025 11:56 10,1 °C 10,6 °C 6,7 °C 94 % 1024,9 hPa 0,0 l/m² 0 min 0 min 139 W/m² 6,4 km/h (2 Bft) 95,83 %
11.12.2025 11:58 10,1 °C 11,1 °C 6,7 °C 93 % 1024,9 hPa 0,0 l/m² 2 min 0 min 170 W/m² 12,9 km/h (3 Bft) 94,64 %
11.12.2025 12:00 10,1 °C 11,1 °C 6,7 °C 93 % 1024,9 hPa 0,0 l/m² 2 min 0 min 198 W/m² 6,4 km/h (2 Bft) 95,45 %
11.12.2025 12:02 10,2 °C 11,1 °C 6,7 °C 93 % 1024,9 hPa 0,0 l/m² 0 min 0 min 145 W/m² 6,4 km/h (2 Bft) 95,12 %
11.12.2025 12:04 10,2 °C 11,7 °C 6,7 °C 93 % 1024,9 hPa 0,0 l/m² 2 min 0 min 204 W/m² 6,4 km/h (2 Bft) 93,88 %
11.12.2025 12:08 10,3 °C 11,7 °C 6,7 °C 92 % 1024,8 hPa 0,0 l/m² 4 min 0 min 169 W/m² 9,7 km/h (2 Bft) 94,51 %
11.12.2025 12:10 10,4 °C 11,7 °C 6,7 °C 92 % 1024,7 hPa 0,0 l/m² 0 min 0 min 132 W/m² 9,7 km/h (2 Bft) 94,64 %
11.12.2025 12:12 10,4 °C 11,1 °C 6,7 °C 92 % 1024,7 hPa 0,0 l/m² 0 min 0 min 137 W/m² 6,4 km/h (2 Bft) 91,89 %
11.12.2025 12:16 10,5 °C 11,1 °C 6,7 °C 91 % 1024,7 hPa 0,0 l/m² 0 min 0 min 130 W/m² 6,4 km/h (2 Bft) 95,88 %
11.12.2025 12:18 10,5 °C 11,1 °C 6,7 °C 91 % 1024,6 hPa 0,0 l/m² 0 min 0 min 109 W/m² 3,2 km/h (1 Bft) 95,45 %
11.12.2025 12:20 10,5 °C 11,1 °C 6,7 °C 90 % 1024,6 hPa 0,0 l/m² 0 min 0 min 107 W/m² 6,4 km/h (2 Bft) 94,74 %
11.12.2025 12:22 10,5 °C 11,1 °C 6,7 °C 90 % 1024,6 hPa 0,0 l/m² 0 min 0 min 119 W/m² 12,9 km/h (3 Bft) 92,68 %
11.12.2025 12:24 10,5 °C 11,1 °C 6,7 °C 90 % 1024,6 hPa 0,0 l/m² 0 min 0 min 133 W/m² 6,4 km/h (2 Bft) 95,65 %
11.12.2025 12:26 10,5 °C 11,1 °C 7,2 °C 90 % 1024,5 hPa 0,0 l/m² 2 min 0 min 167 W/m² 9,7 km/h (2 Bft) 95,56 %
11.12.2025 12:28 10,6 °C 11,7 °C 7,2 °C 90 % 1024,5 hPa 0,0 l/m² 2 min 0 min 202 W/m² 12,9 km/h (3 Bft) 92,73 %
11.12.2025 12:30 10,6 °C 11,1 °C 7,2 °C 90 % 1024,4 hPa 0,0 l/m² 0 min 0 min 149 W/m² 16,1 km/h (3 Bft) 95,12 %
11.12.2025 12:32 10,6 °C 11,1 °C 7,2 °C 89 % 1024,3 hPa 0,0 l/m² 0 min 0 min 130 W/m² 12,9 km/h (3 Bft) 95,74 %
11.12.2025 12:34 10,6 °C 10,6 °C 7,2 °C 89 % 1024,3 hPa 0,0 l/m² 0 min 0 min 116 W/m² 12,9 km/h (3 Bft) 97,87 %
11.12.2025 12:36 10,6 °C 11,1 °C 7,2 °C 89 % 1024,3 hPa 0,0 l/m² 0 min 0 min 140 W/m² 6,4 km/h (2 Bft) 97,73 %
11.12.2025 12:38 10,6 °C 11,1 °C 7,2 °C 89 % 1024,3 hPa 0,0 l/m² 0 min 0 min 139 W/m² 12,9 km/h (3 Bft) 100,00 %
11.12.2025 12:40 10,6 °C 11,1 °C 7,2 °C 89 % 1024,3 hPa 0,0 l/m² 0 min 0 min 127 W/m² 12,9 km/h (3 Bft) 98,08 %
11.12.2025 12:42 10,6 °C 11,1 °C 7,2 °C 89 % 1024,3 hPa 0,0 l/m² 0 min 0 min 125 W/m² 3,2 km/h (1 Bft) 93,62 %
11.12.2025 12:44 10,6 °C 11,1 °C 7,2 °C 89 % 1024,3 hPa 0,0 l/m² 0 min 0 min 128 W/m² 9,7 km/h (2 Bft) 100,00 %
11.12.2025 12:46 10,6 °C 11,1 °C 7,2 °C 89 % 1024,2 hPa 0,0 l/m² 0 min 0 min 127 W/m² 19,3 km/h (3 Bft) 97,73 %
11.12.2025 12:48 10,6 °C 11,1 °C 7,2 °C 89 % 1024,2 hPa 0,0 l/m² 0 min 0 min 135 W/m² 12,9 km/h (3 Bft) 100,00 %
11.12.2025 12:50 10,6 °C 11,1 °C 7,2 °C 89 % 1024,2 hPa 0,0 l/m² 0 min 0 min 130 W/m² 6,4 km/h (2 Bft) 100,00 %
11.12.2025 12:52 10,6 °C 11,1 °C 7,2 °C 89 % 1024,1 hPa 0,0 l/m² 0 min 0 min 123 W/m² 12,9 km/h (3 Bft) 100,00 %
11.12.2025 12:54 10,6 °C 11,1 °C 7,2 °C 89 % 1024,1 hPa 0,0 l/m² 0 min 0 min 134 W/m² 16,1 km/h (3 Bft) 100,00 %
11.12.2025 12:56 10,6 °C 11,1 °C 7,2 °C 89 % 1024,1 hPa 0,0 l/m² 0 min 0 min 135 W/m² 12,9 km/h (3 Bft) 100,00 %
11.12.2025 12:58 10,6 °C 11,1 °C 7,2 °C 89 % 1024,1 hPa 0,0 l/m² 0 min 0 min 135 W/m² 12,9 km/h (3 Bft) 100,00 %
11.12.2025 13:00 10,6 °C 11,1 °C 7,2 °C 89 % 1024,1 hPa 0,0 l/m² 0 min 0 min 139 W/m² 12,9 km/h (3 Bft) 100,00 %
11.12.2025 13:02 10,6 °C 11,1 °C 7,2 °C 89 % 1024,1 hPa 0,0 l/m² 0 min 0 min 130 W/m² 16,1 km/h (3 Bft) 100,00 %
11.12.2025 13:04 10,6 °C 11,7 °C 7,2 °C 89 % 1024,1 hPa 0,0 l/m² 2 min 0 min 154 W/m² 19,3 km/h (3 Bft) 100,00 %
11.12.2025 13:06 10,6 °C 12,2 °C 7,2 °C 89 % 1024,0 hPa 0,0 l/m² 2 min 0 min 168 W/m² 12,9 km/h (3 Bft) 98,31 %
11.12.2025 13:08 10,7 °C 11,7 °C 7,2 °C 89 % 1024,0 hPa 0,0 l/m² 0 min 0 min 141 W/m² 6,4 km/h (2 Bft) 100,00 %
11.12.2025 13:10 10,7 °C 11,7 °C 7,2 °C 89 % 1024,0 hPa 0,0 l/m² 0 min 0 min 136 W/m² 9,7 km/h (2 Bft) 100,00 %
11.12.2025 13:12 10,7 °C 12,2 °C 7,2 °C 89 % 1024,0 hPa 0,0 l/m² 2 min 0 min 155 W/m² 12,9 km/h (3 Bft) 100,00 %
11.12.2025 13:14 10,7 °C 13,3 °C 7,2 °C 89 % 1024,0 hPa 0,0 l/m² 2 min 0 min 241 W/m² 19,3 km/h (3 Bft) 97,50 %
11.12.2025 13:16 10,8 °C 14,4 °C 7,2 °C 88 % 1024,0 hPa 0,0 l/m² 2 min 0 min 240 W/m² 12,9 km/h (3 Bft) 98,15 %
11.12.2025 13:18 10,9 °C 13,9 °C 7,2 °C 89 % 1023,9 hPa 0,0 l/m² 2 min 0 min 268 W/m² 3,2 km/h (1 Bft) 97,44 %
11.12.2025 13:20 11,0 °C 15,0 °C 7,2 °C 89 % 1023,9 hPa 0,0 l/m² 2 min 0 min 299 W/m² 6,4 km/h (2 Bft) 97,87 %
11.12.2025 13:22 11,1 °C 15,6 °C 7,2 °C 88 % 1023,9 hPa 0,0 l/m² 2 min 0 min 340 W/m² 16,1 km/h (3 Bft) 98,28 %
11.12.2025 13:24 11,2 °C 13,9 °C 7,2 °C 88 % 1023,9 hPa 0,0 l/m² 2 min 0 min 295 W/m² 9,7 km/h (2 Bft) 97,83 %
11.12.2025 13:28 11,2 °C 12,2 °C 7,2 °C 87 % 1023,9 hPa 0,0 l/m² 0 min 0 min 109 W/m² 12,9 km/h (3 Bft) 96,74 %
11.12.2025 13:30 11,3 °C 11,7 °C 7,2 °C 87 % 1023,8 hPa 0,0 l/m² 2 min 0 min 195 W/m² 9,7 km/h (2 Bft) 97,37 %
11.12.2025 13:32 11,3 °C 12,2 °C 6,7 °C 87 % 1023,8 hPa 0,0 l/m² 2 min 0 min 208 W/m² 9,7 km/h (2 Bft) 97,87 %
11.12.2025 13:34 11,2 °C 11,7 °C 6,7 °C 86 % 1023,8 hPa 0,0 l/m² 0 min 0 min 72 W/m² 9,7 km/h (2 Bft) 96,55 %
11.12.2025 13:36 11,2 °C 12,2 °C 6,7 °C 86 % 1023,8 hPa 0,0 l/m² 2 min 0 min 179 W/m² 6,4 km/h (2 Bft) 95,74 %
11.12.2025 13:38 11,2 °C 12,8 °C 6,7 °C 86 % 1023,7 hPa 0,0 l/m² 2 min 0 min 273 W/m² 6,4 km/h (2 Bft) 97,78 %
11.12.2025 13:40 11,3 °C 12,8 °C 6,7 °C 87 % 1023,7 hPa 0,0 l/m² 2 min 0 min 238 W/m² 6,4 km/h (2 Bft) 97,83 %
11.12.2025 13:42 11,3 °C 12,8 °C 7,2 °C 87 % 1023,7 hPa 0,0 l/m² 2 min 0 min 277 W/m² 3,2 km/h (1 Bft) 97,78 %
11.12.2025 13:44 11,4 °C 12,8 °C 7,2 °C 87 % 1023,7 hPa 0,0 l/m² 2 min 0 min 279 W/m² 12,9 km/h (3 Bft) 97,56 %
11.12.2025 13:46 11,5 °C 12,2 °C 7,2 °C 86 % 1023,6 hPa 0,0 l/m² 2 min 0 min 198 W/m² 6,4 km/h (2 Bft) 96,30 %
11.12.2025 13:48 11,6 °C 12,2 °C 7,2 °C 86 % 1023,6 hPa 0,0 l/m² 2 min 0 min 157 W/m² 6,4 km/h (2 Bft) 97,50 %
11.12.2025 13:50 11,6 °C 11,7 °C 7,2 °C 86 % 1023,6 hPa 0,0 l/m² 0 min 0 min 77 W/m² 12,9 km/h (3 Bft) 96,36 %
11.12.2025 13:52 11,5 °C 11,7 °C 6,7 °C 85 % 1023,6 hPa 0,0 l/m² 0 min 0 min 68 W/m² 6,4 km/h (2 Bft) 94,87 %
11.12.2025 13:54 11,5 °C 11,1 °C 6,7 °C 85 % 1023,6 hPa 0,0 l/m² 0 min 0 min 75 W/m² 6,4 km/h (2 Bft) 98,18 %
11.12.2025 13:56 11,5 °C 11,1 °C 6,7 °C 85 % 1023,6 hPa 0,0 l/m² 0 min 0 min 74 W/m² 6,4 km/h (2 Bft) 97,44 %
11.12.2025 13:58 11,4 °C 11,1 °C 6,7 °C 85 % 1023,6 hPa 0,0 l/m² 0 min 0 min 70 W/m² 12,9 km/h (3 Bft) 98,15 %
11.12.2025 14:00 11,4 °C 11,1 °C 6,7 °C 85 % 1023,6 hPa 0,0 l/m² 0 min 0 min 86 W/m² 12,9 km/h (3 Bft) 100,00 %
11.12.2025 14:02 11,3 °C 11,1 °C 6,7 °C 85 % 1023,6 hPa 0,0 l/m² 0 min 0 min 85 W/m² 6,4 km/h (2 Bft) 100,00 %
11.12.2025 14:04 11,3 °C 11,1 °C 6,7 °C 85 % 1023,6 hPa 0,0 l/m² 0 min 0 min 82 W/m² 12,9 km/h (3 Bft) 97,87 %
11.12.2025 14:06 11,3 °C 11,1 °C 6,7 °C 86 % 1023,6 hPa 0,0 l/m² 2 min 0 min 222 W/m² 12,9 km/h (3 Bft) 100,00 %
11.12.2025 14:08 11,4 °C 11,7 °C 7,2 °C 86 % 1023,5 hPa 0,0 l/m² 2 min 0 min 244 W/m² 12,9 km/h (3 Bft) 100,00 %
11.12.2025 14:10 11,4 °C 11,7 °C 7,2 °C 86 % 1023,5 hPa 0,0 l/m² 2 min 0 min 240 W/m² 12,9 km/h (3 Bft) 100,00 %
11.12.2025 14:12 11,4 °C 11,7 °C 7,2 °C 86 % 1023,5 hPa 0,0 l/m² 2 min 0 min 167 W/m² 9,7 km/h (2 Bft) 100,00 %
11.12.2025 14:14 11,5 °C 11,7 °C 7,2 °C 86 % 1023,5 hPa 0,0 l/m² 2 min 0 min 130 W/m² 6,4 km/h (2 Bft) 100,00 %
11.12.2025 14:16 11,5 °C 11,7 °C 6,7 °C 86 % 1023,5 hPa 0,0 l/m² 0 min 0 min 86 W/m² 12,9 km/h (3 Bft) 100,00 %
11.12.2025 14:18 11,5 °C 11,1 °C 6,7 °C 86 % 1023,5 hPa 0,0 l/m² 0 min 0 min 79 W/m² 9,7 km/h (2 Bft) 100,00 %
11.12.2025 14:20 11,5 °C 11,1 °C 6,7 °C 86 % 1023,5 hPa 0,0 l/m² 0 min 0 min 68 W/m² 6,4 km/h (2 Bft) 100,00 %
11.12.2025 14:22 11,5 °C 11,1 °C 6,7 °C 86 % 1023,4 hPa 0,0 l/m² 0 min 0 min 64 W/m² 12,9 km/h (3 Bft) 100,00 %
11.12.2025 14:24 11,5 °C 11,7 °C 6,7 °C 86 % 1023,5 hPa 0,0 l/m² 2 min 0 min 165 W/m² 9,7 km/h (2 Bft) 97,56 %
11.12.2025 14:26 11,5 °C 12,2 °C 6,7 °C 86 % 1023,5 hPa 0,0 l/m² 2 min 0 min 209 W/m² 12,9 km/h (3 Bft) 98,08 %
11.12.2025 14:28 11,5 °C 12,8 °C 6,7 °C 86 % 1023,4 hPa 0,0 l/m² 2 min 0 min 221 W/m² 6,4 km/h (2 Bft) 97,87 %
11.12.2025 14:30 11,6 °C 13,3 °C 6,7 °C 86 % 1023,4 hPa 0,0 l/m² 2 min 0 min 225 W/m² 16,1 km/h (3 Bft) 97,78 %
11.12.2025 14:32 11,6 °C 13,9 °C 7,2 °C 86 % 1023,4 hPa 0,0 l/m² 2 min 0 min 200 W/m² 6,4 km/h (2 Bft) 97,30 %
11.12.2025 14:34 11,6 °C 13,3 °C 7,2 °C 86 % 1023,4 hPa 0,0 l/m² 2 min 0 min 122 W/m² 12,9 km/h (3 Bft) 98,25 %
11.12.2025 14:36 11,6 °C 12,8 °C 6,7 °C 86 % 1023,4 hPa 0,0 l/m² 0 min 0 min 99 W/m² 12,9 km/h (3 Bft) 97,30 %
11.12.2025 14:38 11,6 °C 12,2 °C 6,7 °C 86 % 1023,3 hPa 0,0 l/m² 2 min 0 min 137 W/m² 12,9 km/h (3 Bft) 98,21 %
11.12.2025 14:40 11,6 °C 11,7 °C 6,7 °C 86 % 1023,3 hPa 0,0 l/m² 2 min 0 min 150 W/m² 16,1 km/h (3 Bft) 96,00 %
11.12.2025 14:42 11,7 °C 11,7 °C 6,7 °C 86 % 1023,2 hPa 0,0 l/m² 2 min 0 min 142 W/m² 16,1 km/h (3 Bft) 97,73 %
11.12.2025 14:44 11,7 °C 11,1 °C 6,7 °C 86 % 1023,2 hPa 0,0 l/m² 2 min 0 min 136 W/m² 12,9 km/h (3 Bft) 97,96 %
11.12.2025 14:46 11,7 °C 11,1 °C 6,7 °C 85 % 1023,2 hPa 0,0 l/m² 2 min 0 min 132 W/m² 6,4 km/h (2 Bft) 93,33 %
11.12.2025 14:48 11,7 °C 10,6 °C 6,7 °C 85 % 1023,2 hPa 0,0 l/m² 2 min 0 min 130 W/m² 16,1 km/h (3 Bft) 97,96 %
11.12.2025 14:50 11,6 °C 10,6 °C 6,7 °C 85 % 1023,1 hPa 0,0 l/m² 2 min 0 min 127 W/m² 12,9 km/h (3 Bft) 97,73 %
11.12.2025 14:52 11,6 °C 10,6 °C 6,7 °C 85 % 1023,2 hPa 0,0 l/m² 2 min 0 min 124 W/m² 9,7 km/h (2 Bft) 98,00 %
11.12.2025 14:54 11,6 °C 10,6 °C 6,7 °C 85 % 1023,1 hPa 0,0 l/m² 2 min 0 min 121 W/m² 16,1 km/h (3 Bft) 97,67 %
11.12.2025 14:56 11,6 °C 10,6 °C 6,7 °C 85 % 1023,1 hPa 0,0 l/m² 2 min 0 min 108 W/m² 16,1 km/h (3 Bft) 94,87 %
11.12.2025 14:58 11,6 °C 10,0 °C 6,7 °C 85 % 1023,1 hPa 0,0 l/m² 2 min 0 min 101 W/m² 12,9 km/h (3 Bft) 96,36 %
11.12.2025 15:00 11,5 °C 10,0 °C 6,7 °C 85 % 1023,1 hPa 0,0 l/m² 2 min 0 min 104 W/m² 12,9 km/h (3 Bft) 98,04 %
11.12.2025 15:02 11,5 °C 10,0 °C 6,7 °C 85 % 1023,1 hPa 0,0 l/m² 2 min 0 min 104 W/m² 16,1 km/h (3 Bft) 97,62 %
11.12.2025 15:04 11,4 °C 10,0 °C 6,7 °C 85 % 1023,1 hPa 0,0 l/m² 2 min 0 min 101 W/m² 12,9 km/h (3 Bft) 98,15 %
11.12.2025 15:06 11,4 °C 10,0 °C 6,1 °C 85 % 1023,1 hPa 0,0 l/m² 2 min 0 min 92 W/m² 12,9 km/h (3 Bft) 97,22 %
11.12.2025 15:08 11,4 °C 10,0 °C 6,1 °C 85 % 1023,1 hPa 0,0 l/m² 2 min 0 min 77 W/m² 12,9 km/h (3 Bft) 98,28 %
11.12.2025 15:10 11,3 °C 10,0 °C 6,1 °C 85 % 1023,0 hPa 0,0 l/m² 0 min 0 min 67 W/m² 6,4 km/h (2 Bft) 95,24 %
11.12.2025 15:12 11,3 °C 10,0 °C 6,1 °C 85 % 1023,1 hPa 0,0 l/m² 0 min 0 min 50 W/m² 6,4 km/h (2 Bft) 96,15 %
11.12.2025 15:14 11,2 °C 10,0 °C 6,1 °C 85 % 1023,0 hPa 0,0 l/m² 0 min 0 min 39 W/m² 9,7 km/h (2 Bft) 100,00 %
11.12.2025 15:16 11,2 °C 10,0 °C 6,1 °C 86 % 1023,1 hPa 0,0 l/m² 0 min 0 min 31 W/m² 12,9 km/h (3 Bft) 96,55 %
11.12.2025 15:18 11,2 °C 10,0 °C 6,1 °C 86 % 1023,0 hPa 0,0 l/m² 0 min 0 min 28 W/m² 3,2 km/h (1 Bft) 95,24 %
11.12.2025 15:20 11,1 °C 10,0 °C 6,1 °C 86 % 1023,0 hPa 0,0 l/m² 0 min 0 min 28 W/m² 6,4 km/h (2 Bft) 97,56 %
11.12.2025 15:22 11,1 °C 10,0 °C 6,1 °C 86 % 1023,0 hPa 0,0 l/m² 0 min 0 min 28 W/m² 6,4 km/h (2 Bft) 97,87 %
11.12.2025 15:24 11,1 °C 10,0 °C 6,1 °C 86 % 1022,9 hPa 0,0 l/m² 0 min 0 min 28 W/m² 3,2 km/h (1 Bft) 98,25 %
11.12.2025 15:26 11,1 °C 10,0 °C 6,1 °C 86 % 1022,9 hPa 0,0 l/m² 0 min 0 min 26 W/m² 6,4 km/h (2 Bft) 94,59 %
11.12.2025 15:28 11,0 °C 10,0 °C 6,1 °C 86 % 1022,9 hPa 0,0 l/m² 0 min 0 min 26 W/m² 6,4 km/h (2 Bft) 98,25 %
11.12.2025 15:30 11,0 °C 10,0 °C 6,1 °C 86 % 1022,9 hPa 0,0 l/m² 0 min 0 min 25 W/m² 3,2 km/h (1 Bft) 97,30 %
11.12.2025 15:32 10,9 °C 10,0 °C 6,1 °C 86 % 1022,9 hPa 0,0 l/m² 0 min 0 min 25 W/m² 6,4 km/h (2 Bft) 95,65 %
11.12.2025 15:34 10,9 °C 10,0 °C 6,1 °C 86 % 1022,8 hPa 0,0 l/m² 0 min 0 min 25 W/m² 3,2 km/h (1 Bft) 97,92 %
11.12.2025 15:36 10,9 °C 10,0 °C 6,1 °C 86 % 1022,9 hPa 0,0 l/m² 0 min 0 min 24 W/m² 3,2 km/h (1 Bft) 97,83 %
11.12.2025 15:38 10,8 °C 9,4 °C 5,6 °C 86 % 1022,8 hPa 0,0 l/m² 0 min 0 min 23 W/m² 3,2 km/h (1 Bft) 97,87 %
11.12.2025 15:40 10,8 °C 9,4 °C 5,6 °C 86 % 1022,9 hPa 0,0 l/m² 0 min 0 min 23 W/m² 3,2 km/h (1 Bft) 97,83 %
11.12.2025 15:42 10,8 °C 9,4 °C 5,6 °C 86 % 1022,9 hPa 0,0 l/m² 0 min 0 min 23 W/m² 6,4 km/h (2 Bft) 98,15 %
11.12.2025 15:44 10,8 °C 9,4 °C 5,6 °C 86 % 1022,8 hPa 0,0 l/m² 0 min 0 min 23 W/m² 3,2 km/h (1 Bft) 100,00 %
11.12.2025 15:46 10,7 °C 9,4 °C 5,6 °C 87 % 1022,8 hPa 0,0 l/m² 0 min 0 min 21 W/m² 6,4 km/h (2 Bft) 100,00 %
11.12.2025 15:48 10,7 °C 9,4 °C 5,6 °C 87 % 1022,8 hPa 0,0 l/m² 0 min 0 min 21 W/m² 3,2 km/h (1 Bft) 97,83 %
11.12.2025 15:50 10,7 °C 9,4 °C 5,6 °C 87 % 1022,8 hPa 0,0 l/m² 0 min 0 min 21 W/m² 3,2 km/h (1 Bft) 100,00 %
11.12.2025 15:52 10,7 °C 9,4 °C 5,6 °C 87 % 1022,8 hPa 0,0 l/m² 0 min 0 min 19 W/m² 6,4 km/h (2 Bft) 100,00 %
11.12.2025 15:54 10,6 °C 9,4 °C 5,6 °C 87 % 1022,8 hPa 0,0 l/m² 0 min 0 min 19 W/m² 6,4 km/h (2 Bft) 100,00 %
11.12.2025 15:56 10,6 °C 9,4 °C 5,6 °C 87 % 1022,8 hPa 0,0 l/m² 0 min 0 min 19 W/m² 3,2 km/h (1 Bft) 100,00 %
11.12.2025 15:58 10,6 °C 9,4 °C 5,6 °C 87 % 1022,8 hPa 0,0 l/m² 0 min 0 min 18 W/m² 6,4 km/h (2 Bft) 96,23 %
11.12.2025 16:00 10,6 °C 9,4 °C 5,6 °C 87 % 1022,8 hPa 0,0 l/m² 0 min 0 min 18 W/m² 6,4 km/h (2 Bft) 97,56 %
11.12.2025 16:02 10,5 °C 9,4 °C 5,6 °C 87 % 1022,8 hPa 0,0 l/m² 0 min 0 min 16 W/m² 3,2 km/h (1 Bft) 94,34 %
11.12.2025 16:04 10,4 °C 8,9 °C 5,6 °C 87 % 1022,8 hPa 0,0 l/m² 0 min 0 min 15 W/m² 6,4 km/h (2 Bft) 97,44 %
11.12.2025 16:06 10,4 °C 8,9 °C 5,6 °C 87 % 1022,8 hPa 0,0 l/m² 0 min 0 min 13 W/m² 3,2 km/h (1 Bft) 98,04 %
11.12.2025 16:08 10,4 °C 8,9 °C 5,6 °C 87 % 1022,7 hPa 0,0 l/m² 0 min 0 min 11 W/m² 3,2 km/h (1 Bft) 95,35 %
11.12.2025 16:10 10,4 °C 8,9 °C 5,6 °C 87 % 1022,7 hPa 0,0 l/m² 0 min 0 min 11 W/m² 6,4 km/h (2 Bft) 98,04 %
11.12.2025 16:12 10,3 °C 8,9 °C 5,6 °C 87 % 1022,7 hPa 0,0 l/m² 0 min 0 min 9 W/m² 3,2 km/h (1 Bft) 95,24 %
11.12.2025 16:14 10,3 °C 8,9 °C 5,0 °C 87 % 1022,7 hPa 0,0 l/m² 0 min 0 min 8 W/m² 3,2 km/h (1 Bft) 98,08 %
11.12.2025 16:16 10,2 °C 8,9 °C 5,0 °C 87 % 1022,7 hPa 0,0 l/m² 0 min 0 min 7 W/m² 3,2 km/h (1 Bft) 97,67 %
11.12.2025 16:18 10,2 °C 8,3 °C 5,0 °C 87 % 1022,6 hPa 0,0 l/m² 0 min 0 min 7 W/m² 6,4 km/h (2 Bft) 98,04 %
11.12.2025 16:20 10,2 °C 8,3 °C 5,0 °C 87 % 1022,6 hPa 0,0 l/m² 0 min 0 min 5 W/m² 6,4 km/h (2 Bft) 97,56 %
11.12.2025 16:22 10,1 °C 8,3 °C 5,0 °C 87 % 1022,6 hPa 0,0 l/m² 0 min 0 min 5 W/m² 6,4 km/h (2 Bft) 96,15 %
11.12.2025 16:24 10,1 °C 8,3 °C 5,0 °C 87 % 1022,6 hPa 0,0 l/m² 0 min 0 min 5 W/m² 3,2 km/h (1 Bft) 97,87 %
11.12.2025 16:26 10,0 °C 8,3 °C 5,0 °C 87 % 1022,6 hPa 0,0 l/m² 0 min 0 min 5 W/m² 6,4 km/h (2 Bft) 97,78 %
11.12.2025 16:28 10,0 °C 8,3 °C 5,0 °C 87 % 1022,5 hPa 0,0 l/m² 0 min 0 min 0 W/m² 6,4 km/h (2 Bft) 97,96 %
11.12.2025 16:30 9,9 °C 8,3 °C 5,0 °C 87 % 1022,5 hPa 0,0 l/m² 0 min 0 min 0 W/m² 6,4 km/h (2 Bft) 97,62 %
11.12.2025 16:32 9,9 °C 8,3 °C 5,0 °C 88 % 1022,5 hPa 0,0 l/m² 0 min 0 min 0 W/m² 6,4 km/h (2 Bft) 100,00 %
11.12.2025 16:34 9,8 °C 8,3 °C 5,0 °C 88 % 1022,5 hPa 0,0 l/m² 0 min 0 min 0 W/m² 9,7 km/h (2 Bft) 100,00 %
11.12.2025 16:36 9,8 °C 8,3 °C 5,0 °C 87 % 1022,5 hPa 0,0 l/m² 0 min 0 min 0 W/m² 6,4 km/h (2 Bft) 98,21 %
11.12.2025 16:38 9,7 °C 8,3 °C 5,0 °C 88 % 1022,5 hPa 0,0 l/m² 0 min 0 min 0 W/m² 6,4 km/h (2 Bft) 100,00 %
11.12.2025 16:40 9,7 °C 8,3 °C 5,0 °C 88 % 1022,5 hPa 0,0 l/m² 0 min 0 min 0 W/m² 12,9 km/h (3 Bft) 100,00 %
11.12.2025 16:42 9,6 °C 8,3 °C 5,0 °C 88 % 1022,5 hPa 0,0 l/m² 0 min 0 min 0 W/m² 6,4 km/h (2 Bft) 100,00 %
11.12.2025 16:44 9,6 °C 8,3 °C 5,0 °C 88 % 1022,5 hPa 0,0 l/m² 0 min 0 min 0 W/m² 3,2 km/h (1 Bft) 100,00 %
11.12.2025 16:46 9,6 °C 8,3 °C 5,0 °C 88 % 1022,5 hPa 0,0 l/m² 0 min 0 min 0 W/m² 6,4 km/h (2 Bft) 100,00 %
11.12.2025 16:48 9,5 °C 8,3 °C 5,0 °C 88 % 1022,5 hPa 0,0 l/m² 0 min 0 min 0 W/m² 9,7 km/h (2 Bft) 100,00 %
11.12.2025 16:50 9,5 °C 8,3 °C 5,0 °C 88 % 1022,5 hPa 0,0 l/m² 0 min 0 min 0 W/m² 6,4 km/h (2 Bft) 100,00 %
11.12.2025 16:52 9,4 °C 8,3 °C 5,0 °C 88 % 1022,5 hPa 0,0 l/m² 0 min 0 min 0 W/m² 6,4 km/h (2 Bft) 100,00 %
11.12.2025 16:54 9,4 °C 8,3 °C 5,0 °C 88 % 1022,5 hPa 0,0 l/m² 0 min 0 min 0 W/m² 3,2 km/h (1 Bft) 100,00 %
11.12.2025 16:56 9,4 °C 7,8 °C 4,4 °C 88 % 1022,5 hPa 0,0 l/m² 0 min 0 min 0 W/m² 6,4 km/h (2 Bft) 94,74 %
11.12.2025 16:58 9,3 °C 7,8 °C 4,4 °C 88 % 1022,5 hPa 0,0 l/m² 0 min 0 min 0 W/m² 6,4 km/h (2 Bft) 96,23 %
11.12.2025 17:00 9,3 °C 7,8 °C 4,4 °C 88 % 1022,5 hPa 0,0 l/m² 0 min 0 min 0 W/m² 6,4 km/h (2 Bft) 97,56 %
11.12.2025 17:02 9,3 °C 7,8 °C 4,4 °C 88 % 1022,5 hPa 0,0 l/m² 0 min 0 min 0 W/m² 6,4 km/h (2 Bft) 96,49 %
11.12.2025 17:04 9,2 °C 7,8 °C 4,4 °C 88 % 1022,4 hPa 0,0 l/m² 0 min 0 min 0 W/m² 6,4 km/h (2 Bft) 95,00 %
11.12.2025 17:06 9,2 °C 7,8 °C 4,4 °C 88 % 1022,5 hPa 0,0 l/m² 0 min 0 min 0 W/m² 6,4 km/h (2 Bft) 96,36 %
11.12.2025 17:08 9,2 °C 7,8 °C 4,4 °C 88 % 1022,5 hPa 0,0 l/m² 0 min 0 min 0 W/m² 9,7 km/h (2 Bft) 94,87 %
11.12.2025 17:10 9,1 °C 7,8 °C 4,4 °C 88 % 1022,5 hPa 0,0 l/m² 0 min 0 min 0 W/m² 12,9 km/h (3 Bft) 95,45 %
11.12.2025 17:12 9,1 °C 7,8 °C 4,4 °C 88 % 1022,5 hPa 0,0 l/m² 0 min 0 min 0 W/m² 12,9 km/h (3 Bft) 94,00 %
11.12.2025 17:14 9,0 °C 7,8 °C 4,4 °C 88 % 1022,5 hPa 0,0 l/m² 0 min 0 min 0 W/m² 12,9 km/h (3 Bft) 95,56 %
11.12.2025 17:16 9,0 °C 7,8 °C 4,4 °C 88 % 1022,5 hPa 0,0 l/m² 0 min 0 min 0 W/m² 12,9 km/h (3 Bft) 91,67 %
11.12.2025 17:18 8,9 °C 7,8 °C 4,4 °C 89 % 1022,5 hPa 0,0 l/m² 0 min 0 min 0 W/m² 16,1 km/h (3 Bft) 96,36 %
11.12.2025 17:20 8,9 °C 7,8 °C 4,4 °C 89 % 1022,5 hPa 0,0 l/m² 0 min 0 min 0 W/m² 6,4 km/h (2 Bft) 94,87 %
11.12.2025 17:22 8,9 °C 7,8 °C 4,4 °C 89 % 1022,5 hPa 0,0 l/m² 0 min 0 min 0 W/m² 12,9 km/h (3 Bft) 96,23 %
11.12.2025 17:24 8,8 °C 7,8 °C 4,4 °C 89 % 1022,4 hPa 0,0 l/m² 0 min 0 min 0 W/m² 16,1 km/h (3 Bft) 95,12 %
11.12.2025 17:26 8,8 °C 7,8 °C 4,4 °C 89 % 1022,5 hPa 0,0 l/m² 0 min 0 min 0 W/m² 6,4 km/h (2 Bft) 95,45 %
11.12.2025 17:28 8,8 °C 7,8 °C 4,4 °C 89 % 1022,5 hPa 0,0 l/m² 0 min 0 min 0 W/m² 6,4 km/h (2 Bft) 96,00 %
11.12.2025 17:30 8,8 °C 7,8 °C 4,4 °C 89 % 1022,5 hPa 0,0 l/m² 0 min 0 min 0 W/m² 12,9 km/h (3 Bft) 92,73 %
11.12.2025 17:32 8,7 °C 7,8 °C 4,4 °C 89 % 1022,5 hPa 0,0 l/m² 0 min 0 min 0 W/m² 12,9 km/h (3 Bft) 97,44 %
11.12.2025 17:34 8,7 °C 7,8 °C 4,4 °C 89 % 1022,5 hPa 0,0 l/m² 0 min 0 min 0 W/m² 12,9 km/h (3 Bft) 94,34 %
11.12.2025 17:36 8,7 °C 7,8 °C 4,4 °C 89 % 1022,5 hPa 0,0 l/m² 0 min 0 min 0 W/m² 6,4 km/h (2 Bft) 95,12 %
11.12.2025 17:38 8,6 °C 7,8 °C 4,4 °C 89 % 1022,5 hPa 0,0 l/m² 0 min 0 min 0 W/m² 12,9 km/h (3 Bft) 96,30 %
11.12.2025 17:40 8,6 °C 7,8 °C 4,4 °C 89 % 1022,5 hPa 0,0 l/m² 0 min 0 min 0 W/m² 6,4 km/h (2 Bft) 92,31 %
11.12.2025 17:42 8,6 °C 7,8 °C 4,4 °C 89 % 1022,6 hPa 0,0 l/m² 0 min 0 min 0 W/m² 9,7 km/h (2 Bft) 98,15 %
11.12.2025 17:44 8,6 °C 7,2 °C 4,4 °C 89 % 1022,5 hPa 0,0 l/m² 0 min 0 min 0 W/m² 6,4 km/h (2 Bft) 97,50 %
11.12.2025 17:46 8,6 °C 7,2 °C 4,4 °C 89 % 1022,5 hPa 0,0 l/m² 0 min 0 min 0 W/m² 6,4 km/h (2 Bft) 97,67 %
11.12.2025 17:48 8,6 °C 7,2 °C 4,4 °C 89 % 1022,6 hPa 0,0 l/m² 0 min 0 min 0 W/m² 12,9 km/h (3 Bft) 98,04 %
11.12.2025 17:50 8,5 °C 7,2 °C 4,4 °C 89 % 1022,6 hPa 0,0 l/m² 0 min 0 min 0 W/m² 12,9 km/h (3 Bft) 97,78 %
11.12.2025 17:52 8,5 °C 7,2 °C 4,4 °C 89 % 1022,5 hPa 0,0 l/m² 0 min 0 min 0 W/m² 12,9 km/h (3 Bft) 97,96 %
11.12.2025 17:54 8,5 °C 7,2 °C 4,4 °C 89 % 1022,5 hPa 0,0 l/m² 0 min 0 min 0 W/m² 9,7 km/h (2 Bft) 95,56 %
11.12.2025 17:56 8,4 °C 7,2 °C 4,4 °C 90 % 1022,5 hPa 0,0 l/m² 0 min 0 min 0 W/m² 16,1 km/h (3 Bft) 95,92 %
11.12.2025 17:58 8,4 °C 7,2 °C 4,4 °C 90 % 1022,5 hPa 0,0 l/m² 0 min 0 min 0 W/m² 16,1 km/h (3 Bft) 95,74 %
11.12.2025 18:00 8,4 °C 7,2 °C 4,4 °C 90 % 1022,5 hPa 0,0 l/m² 0 min 0 min 0 W/m² 16,1 km/h (3 Bft) 97,83 %
11.12.2025 18:02 8,4 °C 7,8 °C 4,4 °C 90 % 1022,5 hPa 0,0 l/m² 0 min 0 min 0 W/m² 12,9 km/h (3 Bft) 94,34 %
11.12.2025 18:04 8,4 °C 7,2 °C 4,4 °C 90 % 1022,5 hPa 0,0 l/m² 0 min 0 min 0 W/m² 12,9 km/h (3 Bft) 95,24 %
11.12.2025 18:08 8,4 °C 7,2 °C 4,4 °C 90 % 1022,5 hPa 0,0 l/m² 0 min 0 min 0 W/m² 12,9 km/h (3 Bft) 97,89 %
11.12.2025 18:10 8,4 °C 7,2 °C 4,4 °C 90 % 1022,5 hPa 0,0 l/m² 0 min 0 min 0 W/m² 12,9 km/h (3 Bft) 97,67 %
11.12.2025 18:12 8,3 °C 7,2 °C 4,4 °C 90 % 1022,5 hPa 0,0 l/m² 0 min 0 min 0 W/m² 12,9 km/h (3 Bft) 96,08 %
11.12.2025 18:14 8,3 °C 7,2 °C 3,9 °C 90 % 1022,5 hPa 0,0 l/m² 0 min 0 min 0 W/m² 16,1 km/h (3 Bft) 100,00 %
11.12.2025 18:16 8,3 °C 7,2 °C 3,9 °C 90 % 1022,5 hPa 0,0 l/m² 0 min 0 min 0 W/m² 12,9 km/h (3 Bft) 96,08 %
11.12.2025 18:18 8,3 °C 7,2 °C 3,9 °C 90 % 1022,5 hPa 0,0 l/m² 0 min 0 min 0 W/m² 16,1 km/h (3 Bft) 95,35 %
11.12.2025 18:20 8,3 °C 7,2 °C 3,9 °C 90 % 1022,4 hPa 0,0 l/m² 0 min 0 min 0 W/m² 12,9 km/h (3 Bft) 100,00 %
11.12.2025 18:22 8,3 °C 7,2 °C 3,9 °C 90 % 1022,4 hPa 0,0 l/m² 0 min 0 min 0 W/m² 12,9 km/h (3 Bft) 97,62 %
11.12.2025 18:24 8,2 °C 7,2 °C 3,9 °C 90 % 1022,5 hPa 0,0 l/m² 0 min 0 min 0 W/m² 12,9 km/h (3 Bft) 100,00 %
11.12.2025 18:26 8,2 °C 7,2 °C 3,9 °C 90 % 1022,5 hPa 0,0 l/m² 0 min 0 min 0 W/m² 12,9 km/h (3 Bft) 100,00 %
11.12.2025 18:28 8,2 °C 7,2 °C 3,9 °C 90 % 1022,4 hPa 0,0 l/m² 0 min 0 min 0 W/m² 12,9 km/h (3 Bft) 97,50 %
11.12.2025 18:30 8,2 °C 7,2 °C 3,9 °C 91 % 1022,5 hPa 0,0 l/m² 0 min 0 min 0 W/m² 12,9 km/h (3 Bft) 100,00 %
11.12.2025 18:32 8,1 °C 7,2 °C 3,9 °C 91 % 1022,5 hPa 0,0 l/m² 0 min 0 min 0 W/m² 6,4 km/h (2 Bft) 93,33 %
11.12.2025 18:34 8,1 °C 6,7 °C 3,9 °C 90 % 1022,5 hPa 0,0 l/m² 0 min 0 min 0 W/m² 16,1 km/h (3 Bft) 100,00 %
11.12.2025 18:36 8,1 °C 6,7 °C 3,9 °C 91 % 1022,4 hPa 0,0 l/m² 0 min 0 min 0 W/m² 9,7 km/h (2 Bft) 100,00 %
11.12.2025 18:38 8,1 °C 6,7 °C 3,9 °C 91 % 1022,4 hPa 0,0 l/m² 0 min 0 min 0 W/m² 12,9 km/h (3 Bft) 100,00 %
11.12.2025 18:40 8,0 °C 6,7 °C 3,9 °C 91 % 1022,5 hPa 0,0 l/m² 0 min 0 min 0 W/m² 16,1 km/h (3 Bft) 98,25 %
11.12.2025 18:42 8,0 °C 6,7 °C 3,9 °C 91 % 1022,5 hPa 0,0 l/m² 0 min 0 min 0 W/m² 6,4 km/h (2 Bft) 100,00 %
11.12.2025 18:44 7,9 °C 6,7 °C 3,9 °C 91 % 1022,4 hPa 0,0 l/m² 0 min 0 min 0 W/m² 12,9 km/h (3 Bft) 100,00 %
11.12.2025 18:46 7,9 °C 6,7 °C 3,9 °C 91 % 1022,4 hPa 0,0 l/m² 0 min 0 min 0 W/m² 12,9 km/h (3 Bft) 100,00 %
11.12.2025 18:48 7,9 °C 6,7 °C 3,9 °C 91 % 1022,5 hPa 0,0 l/m² 0 min 0 min 0 W/m² 16,1 km/h (3 Bft) 100,00 %
11.12.2025 18:50 7,9 °C 6,7 °C 3,3 °C 91 % 1022,5 hPa 0,0 l/m² 0 min 0 min 0 W/m² 16,1 km/h (3 Bft) 98,25 %
11.12.2025 18:52 7,8 °C 6,7 °C 3,3 °C 91 % 1022,4 hPa 0,0 l/m² 0 min 0 min 0 W/m² 12,9 km/h (3 Bft) 100,00 %
11.12.2025 18:54 7,8 °C 6,7 °C 3,3 °C 91 % 1022,4 hPa 0,0 l/m² 0 min 0 min 0 W/m² 16,1 km/h (3 Bft) 100,00 %
11.12.2025 18:56 7,8 °C 6,7 °C 3,3 °C 91 % 1022,4 hPa 0,0 l/m² 0 min 0 min 0 W/m² 12,9 km/h (3 Bft) 97,67 %
11.12.2025 18:58 7,8 °C 6,7 °C 3,3 °C 91 % 1022,4 hPa 0,0 l/m² 0 min 0 min 0 W/m² 12,9 km/h (3 Bft) 100,00 %
11.12.2025 19:00 7,7 °C 6,7 °C 3,3 °C 91 % 1022,4 hPa 0,0 l/m² 0 min 0 min 0 W/m² 12,9 km/h (3 Bft) 100,00 %
11.12.2025 19:02 7,7 °C 6,7 °C 3,3 °C 91 % 1022,4 hPa 0,0 l/m² 0 min 0 min 0 W/m² 12,9 km/h (3 Bft) 97,30 %
11.12.2025 19:04 7,7 °C 6,7 °C 3,3 °C 91 % 1022,4 hPa 0,0 l/m² 0 min 0 min 0 W/m² 12,9 km/h (3 Bft) 100,00 %
11.12.2025 19:06 7,6 °C 6,7 °C 3,3 °C 91 % 1022,3 hPa 0,0 l/m² 0 min 0 min 0 W/m² 12,9 km/h (3 Bft) 100,00 %
11.12.2025 19:08 7,6 °C 6,7 °C 3,3 °C 92 % 1022,4 hPa 0,0 l/m² 0 min 0 min 0 W/m² 9,7 km/h (2 Bft) 100,00 %
11.12.2025 19:10 7,6 °C 6,1 °C 3,3 °C 91 % 1022,3 hPa 0,0 l/m² 0 min 0 min 0 W/m² 9,7 km/h (2 Bft) 100,00 %
11.12.2025 19:12 7,5 °C 6,1 °C 3,3 °C 91 % 1022,3 hPa 0,0 l/m² 0 min 0 min 0 W/m² 6,4 km/h (2 Bft) 92,86 %
11.12.2025 19:14 7,5 °C 6,1 °C 3,3 °C 91 % 1022,3 hPa 0,0 l/m² 0 min 0 min 0 W/m² 12,9 km/h (3 Bft) 97,50 %
11.12.2025 19:16 7,4 °C 6,1 °C 3,3 °C 92 % 1022,3 hPa 0,0 l/m² 0 min 0 min 0 W/m² 9,7 km/h (2 Bft) 98,21 %
11.12.2025 19:18 7,4 °C 6,1 °C 3,3 °C 92 % 1022,3 hPa 0,0 l/m² 0 min 0 min 0 W/m² 19,3 km/h (3 Bft) 100,00 %
11.12.2025 19:20 7,4 °C 6,1 °C 3,3 °C 92 % 1022,3 hPa 0,0 l/m² 0 min 0 min 0 W/m² 12,9 km/h (3 Bft) 97,83 %
11.12.2025 19:22 7,3 °C 6,1 °C 3,3 °C 92 % 1022,4 hPa 0,0 l/m² 0 min 0 min 0 W/m² 12,9 km/h (3 Bft) 96,36 %
11.12.2025 19:24 7,3 °C 6,1 °C 3,3 °C 92 % 1022,3 hPa 0,0 l/m² 0 min 0 min 0 W/m² 6,4 km/h (2 Bft) 97,44 %
11.12.2025 19:26 7,3 °C 6,1 °C 3,3 °C 92 % 1022,3 hPa 0,0 l/m² 0 min 0 min 0 W/m² 19,3 km/h (3 Bft) 98,25 %
11.12.2025 19:28 7,2 °C 6,1 °C 2,8 °C 92 % 1022,4 hPa 0,0 l/m² 0 min 0 min 0 W/m² 12,9 km/h (3 Bft) 97,30 %
11.12.2025 19:30 7,2 °C 6,1 °C 2,8 °C 92 % 1022,3 hPa 0,0 l/m² 0 min 0 min 0 W/m² 16,1 km/h (3 Bft) 97,87 %
11.12.2025 19:32 7,2 °C 6,1 °C 2,8 °C 92 % 1022,3 hPa 0,0 l/m² 0 min 0 min 0 W/m² 12,9 km/h (3 Bft) 96,43 %
11.12.2025 19:34 7,2 °C 6,1 °C 2,8 °C 92 % 1022,2 hPa 0,0 l/m² 0 min 0 min 0 W/m² 6,4 km/h (2 Bft) 94,74 %
11.12.2025 19:36 7,1 °C 6,1 °C 2,8 °C 92 % 1022,2 hPa 0,0 l/m² 0 min 0 min 0 W/m² 6,4 km/h (2 Bft) 97,87 %
11.12.2025 19:38 7,1 °C 6,1 °C 2,8 °C 92 % 1022,2 hPa 0,0 l/m² 0 min 0 min 0 W/m² 12,9 km/h (3 Bft) 92,86 %
11.12.2025 19:40 7,1 °C 6,1 °C 2,8 °C 92 % 1022,2 hPa 0,0 l/m² 0 min 0 min 0 W/m² 19,3 km/h (3 Bft) 97,37 %
11.12.2025 19:42 7,1 °C 6,1 °C 2,8 °C 92 % 1022,3 hPa 0,0 l/m² 0 min 0 min 0 W/m² 12,9 km/h (3 Bft) 95,74 %
11.12.2025 19:44 7,1 °C 6,1 °C 2,8 °C 93 % 1022,4 hPa 0,0 l/m² 0 min 0 min 0 W/m² 6,4 km/h (2 Bft) 90,74 %
11.12.2025 19:46 7,0 °C 6,1 °C 2,8 °C 92 % 1022,3 hPa 0,0 l/m² 0 min 0 min 0 W/m² 6,4 km/h (2 Bft) 94,87 %
11.12.2025 19:48 7,0 °C 6,1 °C 2,8 °C 92 % 1022,3 hPa 0,0 l/m² 0 min 0 min 0 W/m² 12,9 km/h (3 Bft) 96,49 %
11.12.2025 19:50 6,9 °C 6,1 °C 2,8 °C 93 % 1022,3 hPa 0,0 l/m² 0 min 0 min 0 W/m² 12,9 km/h (3 Bft) 94,59 %
11.12.2025 19:52 6,9 °C 5,6 °C 2,8 °C 93 % 1022,4 hPa 0,0 l/m² 0 min 0 min 0 W/m² 12,9 km/h (3 Bft) 95,65 %
11.12.2025 19:54 6,9 °C 5,6 °C 2,8 °C 93 % 1022,3 hPa 0,0 l/m² 0 min 0 min 0 W/m² 16,1 km/h (3 Bft) 95,83 %
11.12.2025 19:56 6,9 °C 6,1 °C 2,8 °C 93 % 1022,3 hPa 0,0 l/m² 0 min 0 min 0 W/m² 12,9 km/h (3 Bft) 95,74 %
11.12.2025 19:58 6,8 °C 5,6 °C 2,8 °C 93 % 1022,3 hPa 0,0 l/m² 0 min 0 min 0 W/m² 6,4 km/h (2 Bft) 95,56 %
11.12.2025 20:00 6,8 °C 5,6 °C 2,8 °C 93 % 1022,2 hPa 0,0 l/m² 0 min 0 min 0 W/m² 16,1 km/h (3 Bft) 95,92 %
11.12.2025 20:02 6,8 °C 5,6 °C 2,8 °C 93 % 1022,2 hPa 0,0 l/m² 0 min 0 min 0 W/m² 12,9 km/h (3 Bft) 93,62 %
11.12.2025 20:04 6,8 °C 5,6 °C 2,8 °C 93 % 1022,2 hPa 0,0 l/m² 0 min 0 min 0 W/m² 9,7 km/h (2 Bft) 96,30 %
11.12.2025 20:07 6,8 °C 5,6 °C 2,8 °C 93 % 1022,2 hPa 0,0 l/m² 0 min 0 min 0 W/m² 9,7 km/h (2 Bft) 95,89 %
11.12.2025 20:08 6,8 °C 5,6 °C 2,8 °C 93 % 1022,2 hPa 0,0 l/m² 0 min 0 min 0 W/m² 6,4 km/h (2 Bft) 100,00 %
11.12.2025 20:12 6,7 °C 5,6 °C 2,8 °C 93 % 1022,2 hPa 0,0 l/m² 0 min 0 min 0 W/m² 16,1 km/h (3 Bft) 96,15 %
11.12.2025 20:14 6,7 °C 5,6 °C 2,8 °C 93 % 1022,3 hPa 0,0 l/m² 0 min 0 min 0 W/m² 12,9 km/h (3 Bft) 97,87 %
11.12.2025 20:16 6,7 °C 5,6 °C 2,8 °C 93 % 1022,4 hPa 0,0 l/m² 0 min 0 min 0 W/m² 12,9 km/h (3 Bft) 97,83 %
11.12.2025 20:18 6,6 °C 5,6 °C 2,8 °C 93 % 1022,3 hPa 0,0 l/m² 0 min 0 min 0 W/m² 12,9 km/h (3 Bft) 97,92 %
11.12.2025 20:20 6,6 °C 5,6 °C 2,8 °C 93 % 1022,3 hPa 0,0 l/m² 0 min 0 min 0 W/m² 16,1 km/h (3 Bft) 97,73 %
11.12.2025 20:22 6,6 °C 5,6 °C 2,8 °C 93 % 1022,4 hPa 0,0 l/m² 0 min 0 min 0 W/m² 6,4 km/h (2 Bft) 96,00 %
11.12.2025 20:24 6,6 °C 5,6 °C 2,8 °C 93 % 1022,4 hPa 0,0 l/m² 0 min 0 min 0 W/m² 16,1 km/h (3 Bft) 97,67 %
11.12.2025 20:26 6,5 °C 5,6 °C 2,8 °C 93 % 1022,4 hPa 0,0 l/m² 0 min 0 min 0 W/m² 12,9 km/h (3 Bft) 96,08 %
11.12.2025 20:28 6,5 °C 5,6 °C 2,2 °C 93 % 1022,5 hPa 0,0 l/m² 0 min 0 min 0 W/m² 6,4 km/h (2 Bft) 97,73 %
11.12.2025 20:30 6,5 °C 5,6 °C 2,2 °C 93 % 1022,4 hPa 0,0 l/m² 0 min 0 min 0 W/m² 6,4 km/h (2 Bft) 97,96 %
11.12.2025 20:32 6,5 °C 5,6 °C 2,2 °C 93 % 1022,4 hPa 0,0 l/m² 0 min 0 min 0 W/m² 6,4 km/h (2 Bft) 97,83 %
11.12.2025 20:34 6,4 °C 5,6 °C 2,2 °C 93 % 1022,4 hPa 0,0 l/m² 0 min 0 min 0 W/m² 6,4 km/h (2 Bft) 97,92 %
11.12.2025 20:36 6,4 °C 5,6 °C 2,2 °C 93 % 1022,4 hPa 0,0 l/m² 0 min 0 min 0 W/m² 12,9 km/h (3 Bft) 97,83 %
11.12.2025 20:38 6,4 °C 5,6 °C 2,2 °C 94 % 1022,4 hPa 0,0 l/m² 0 min 0 min 0 W/m² 12,9 km/h (3 Bft) 97,92 %
11.12.2025 20:40 6,4 °C 5,6 °C 2,2 °C 94 % 1022,4 hPa 0,0 l/m² 0 min 0 min 0 W/m² 6,4 km/h (2 Bft) 97,87 %
11.12.2025 20:42 6,3 °C 5,6 °C 2,2 °C 94 % 1022,5 hPa 0,0 l/m² 0 min 0 min 0 W/m² 9,7 km/h (2 Bft) 97,73 %
11.12.2025 20:44 6,3 °C 5,6 °C 2,2 °C 94 % 1022,5 hPa 0,0 l/m² 0 min 0 min 0 W/m² 12,9 km/h (3 Bft) 96,00 %
11.12.2025 20:46 6,3 °C 5,6 °C 2,2 °C 94 % 1022,5 hPa 0,0 l/m² 0 min 0 min 0 W/m² 16,1 km/h (3 Bft) 97,78 %
11.12.2025 20:48 6,3 °C 5,6 °C 2,2 °C 94 % 1022,5 hPa 0,0 l/m² 0 min 0 min 0 W/m² 16,1 km/h (3 Bft) 97,96 %
11.12.2025 20:50 6,3 °C 5,6 °C 2,2 °C 94 % 1022,5 hPa 0,0 l/m² 0 min 0 min 0 W/m² 12,9 km/h (3 Bft) 97,83 %
11.12.2025 20:52 6,3 °C 5,6 °C 2,2 °C 94 % 1022,6 hPa 0,0 l/m² 0 min 0 min 0 W/m² 16,1 km/h (3 Bft) 97,87 %
11.12.2025 20:54 6,2 °C 5,6 °C 2,2 °C 94 % 1022,5 hPa 0,0 l/m² 0 min 0 min 0 W/m² 16,1 km/h (3 Bft) 97,83 %
11.12.2025 20:56 6,2 °C 5,6 °C 2,2 °C 94 % 1022,5 hPa 0,0 l/m² 0 min 0 min 0 W/m² 12,9 km/h (3 Bft) 97,92 %
11.12.2025 20:58 6,2 °C 5,6 °C 2,2 °C 94 % 1022,5 hPa 0,0 l/m² 0 min 0 min 0 W/m² 12,9 km/h (3 Bft) 100,00 %
11.12.2025 21:00 6,2 °C 5,6 °C 2,2 °C 94 % 1022,6 hPa 0,0 l/m² 0 min 0 min 0 W/m² 12,9 km/h (3 Bft) 97,96 %
11.12.2025 21:02 6,2 °C 5,6 °C 2,2 °C 94 % 1022,6 hPa 0,0 l/m² 0 min 0 min 0 W/m² 12,9 km/h (3 Bft) 97,78 %
11.12.2025 21:04 6,2 °C 5,6 °C 2,2 °C 94 % 1022,5 hPa 0,0 l/m² 0 min 0 min 0 W/m² 12,9 km/h (3 Bft) 100,00 %
11.12.2025 21:06 6,2 °C 5,6 °C 2,2 °C 94 % 1022,5 hPa 0,0 l/m² 0 min 0 min 0 W/m² 12,9 km/h (3 Bft) 100,00 %
11.12.2025 21:08 6,1 °C 5,0 °C 2,2 °C 94 % 1022,5 hPa 0,0 l/m² 0 min 0 min 0 W/m² 12,9 km/h (3 Bft) 100,00 %
11.12.2025 21:10 6,1 °C 5,0 °C 2,2 °C 94 % 1022,5 hPa 0,0 l/m² 0 min 0 min 0 W/m² 16,1 km/h (3 Bft) 100,00 %
11.12.2025 21:12 6,1 °C 5,0 °C 2,2 °C 94 % 1022,6 hPa 0,0 l/m² 0 min 0 min 0 W/m² 6,4 km/h (2 Bft) 97,50 %
11.12.2025 21:14 6,1 °C 5,0 °C 2,2 °C 94 % 1022,6 hPa 0,0 l/m² 0 min 0 min 0 W/m² 12,9 km/h (3 Bft) 100,00 %
11.12.2025 21:16 6,1 °C 5,0 °C 2,2 °C 94 % 1022,6 hPa 0,0 l/m² 0 min 0 min 0 W/m² 16,1 km/h (3 Bft) 97,37 %
11.12.2025 21:18 6,1 °C 5,0 °C 2,2 °C 94 % 1022,5 hPa 0,0 l/m² 0 min 0 min 0 W/m² 16,1 km/h (3 Bft) 100,00 %
11.12.2025 21:20 6,1 °C 5,0 °C 2,2 °C 94 % 1022,6 hPa 0,0 l/m² 0 min 0 min 0 W/m² 12,9 km/h (3 Bft) 100,00 %
11.12.2025 21:22 6,1 °C 5,0 °C 2,2 °C 94 % 1022,5 hPa 0,0 l/m² 0 min 0 min 0 W/m² 12,9 km/h (3 Bft) 97,67 %
11.12.2025 21:24 6,0 °C 5,0 °C 2,2 °C 94 % 1022,5 hPa 0,0 l/m² 0 min 0 min 0 W/m² 12,9 km/h (3 Bft) 96,08 %
11.12.2025 21:26 6,0 °C 5,0 °C 2,2 °C 94 % 1022,5 hPa 0,0 l/m² 0 min 0 min 0 W/m² 12,9 km/h (3 Bft) 97,67 %
11.12.2025 21:28 5,9 °C 5,0 °C 2,2 °C 94 % 1022,5 hPa 0,0 l/m² 0 min 0 min 0 W/m² 12,9 km/h (3 Bft) 97,44 %
11.12.2025 21:30 5,9 °C 5,0 °C 2,2 °C 94 % 1022,5 hPa 0,0 l/m² 0 min 0 min 0 W/m² 6,4 km/h (2 Bft) 94,64 %
11.12.2025 21:32 5,9 °C 5,0 °C 2,2 °C 94 % 1022,4 hPa 0,0 l/m² 0 min 0 min 0 W/m² 12,9 km/h (3 Bft) 89,47 %
11.12.2025 21:34 5,9 °C 5,0 °C 2,2 °C 94 % 1022,4 hPa 0,0 l/m² 0 min 0 min 0 W/m² 16,1 km/h (3 Bft) 98,28 %
11.12.2025 21:36 5,9 °C 5,0 °C 2,2 °C 94 % 1022,4 hPa 0,0 l/m² 0 min 0 min 0 W/m² 12,9 km/h (3 Bft) 94,44 %
11.12.2025 21:38 5,8 °C 5,0 °C 2,2 °C 94 % 1022,4 hPa 0,0 l/m² 0 min 0 min 0 W/m² 9,7 km/h (2 Bft) 96,43 %
11.12.2025 21:40 5,8 °C 5,0 °C 2,2 °C 94 % 1022,4 hPa 0,0 l/m² 0 min 0 min 0 W/m² 16,1 km/h (3 Bft) 94,74 %
11.12.2025 21:42 5,8 °C 5,0 °C 2,2 °C 94 % 1022,4 hPa 0,0 l/m² 0 min 0 min 0 W/m² 16,1 km/h (3 Bft) 97,83 %
11.12.2025 21:44 5,8 °C 5,0 °C 2,2 °C 94 % 1022,4 hPa 0,0 l/m² 0 min 0 min 0 W/m² 3,2 km/h (1 Bft) 47,62 %
11.12.2025 21:46 5,8 °C 5,0 °C 2,2 °C 94 % 1022,4 hPa 0,0 l/m² 0 min 0 min 0 W/m² 16,1 km/h (3 Bft) 91,43 %
11.12.2025 21:48 5,8 °C 5,0 °C 2,2 °C 94 % 1022,4 hPa 0,0 l/m² 0 min 0 min 0 W/m² 12,9 km/h (3 Bft) 98,28 %
11.12.2025 21:50 5,8 °C 5,0 °C 2,2 °C 94 % 1022,3 hPa 0,0 l/m² 0 min 0 min 0 W/m² 12,9 km/h (3 Bft) 94,44 %
11.12.2025 21:55 5,7 °C 5,0 °C 2,2 °C 94 % 1022,3 hPa 0,0 l/m² 0 min 0 min 0 W/m² 12,9 km/h (3 Bft) 98,61 %
11.12.2025 21:58 5,7 °C 5,0 °C 1,7 °C 94 % 1022,3 hPa 0,0 l/m² 0 min 0 min 0 W/m² 9,7 km/h (2 Bft) 95,45 %
11.12.2025 22:00 5,7 °C 5,0 °C 1,7 °C 94 % 1022,3 hPa 0,0 l/m² 0 min 0 min 0 W/m² 16,1 km/h (3 Bft) 97,50 %
11.12.2025 22:02 5,7 °C 5,0 °C 1,7 °C 94 % 1022,3 hPa 0,0 l/m² 0 min 0 min 0 W/m² 16,1 km/h (3 Bft) 96,36 %
11.12.2025 22:04 5,6 °C 5,0 °C 1,7 °C 94 % 1022,3 hPa 0,0 l/m² 0 min 0 min 0 W/m² 6,4 km/h (2 Bft) 100,00 %
11.12.2025 22:06 5,6 °C 4,4 °C 1,7 °C 94 % 1022,3 hPa 0,0 l/m² 0 min 0 min 0 W/m² 6,4 km/h (2 Bft) 97,96 %
11.12.2025 22:08 5,6 °C 4,4 °C 1,7 °C 94 % 1022,2 hPa 0,0 l/m² 0 min 0 min 0 W/m² 6,4 km/h (2 Bft) 97,67 %
11.12.2025 22:10 5,6 °C 4,4 °C 1,7 °C 94 % 1022,2 hPa 0,0 l/m² 0 min 0 min 0 W/m² 12,9 km/h (3 Bft) 98,04 %
11.12.2025 22:12 5,6 °C 4,4 °C 1,7 °C 94 % 1022,2 hPa 0,0 l/m² 0 min 0 min 0 W/m² 12,9 km/h (3 Bft) 95,65 %
11.12.2025 22:14 5,6 °C 4,4 °C 1,7 °C 94 % 1022,2 hPa 0,0 l/m² 0 min 0 min 0 W/m² 12,9 km/h (3 Bft) 95,83 %
11.12.2025 22:16 5,5 °C 4,4 °C 1,7 °C 94 % 1022,2 hPa 0,0 l/m² 0 min 0 min 0 W/m² 16,1 km/h (3 Bft) 97,78 %
11.12.2025 22:18 5,5 °C 4,4 °C 1,7 °C 94 % 1022,2 hPa 0,0 l/m² 0 min 0 min 0 W/m² 12,9 km/h (3 Bft) 97,96 %
11.12.2025 22:20 5,5 °C 4,4 °C 1,7 °C 94 % 1022,1 hPa 0,0 l/m² 0 min 0 min 0 W/m² 12,9 km/h (3 Bft) 95,35 %
11.12.2025 22:22 5,4 °C 4,4 °C 1,7 °C 94 % 1022,1 hPa 0,0 l/m² 0 min 0 min 0 W/m² 12,9 km/h (3 Bft) 98,04 %
11.12.2025 22:24 5,4 °C 4,4 °C 1,7 °C 94 % 1022,1 hPa 0,0 l/m² 0 min 0 min 0 W/m² 12,9 km/h (3 Bft) 97,83 %
11.12.2025 22:26 5,4 °C 4,4 °C 1,7 °C 94 % 1022,1 hPa 0,0 l/m² 0 min 0 min 0 W/m² 6,4 km/h (2 Bft) 97,92 %
11.12.2025 22:28 5,4 °C 4,4 °C 1,7 °C 94 % 1022,1 hPa 0,0 l/m² 0 min 0 min 0 W/m² 6,4 km/h (2 Bft) 100,00 %
11.12.2025 22:30 5,4 °C 4,4 °C 1,7 °C 94 % 1022,1 hPa 0,0 l/m² 0 min 0 min 0 W/m² 12,9 km/h (3 Bft) 100,00 %
11.12.2025 22:32 5,3 °C 4,4 °C 1,7 °C 94 % 1022,1 hPa 0,0 l/m² 0 min 0 min 0 W/m² 16,1 km/h (3 Bft) 97,73 %
11.12.2025 22:34 5,3 °C 4,4 °C 1,7 °C 94 % 1022,1 hPa 0,0 l/m² 0 min 0 min 0 W/m² 12,9 km/h (3 Bft) 100,00 %
11.12.2025 22:36 5,3 °C 4,4 °C 1,7 °C 94 % 1022,2 hPa 0,0 l/m² 0 min 0 min 0 W/m² 6,4 km/h (2 Bft) 100,00 %
11.12.2025 22:38 5,3 °C 4,4 °C 1,7 °C 94 % 1022,2 hPa 0,0 l/m² 0 min 0 min 0 W/m² 6,4 km/h (2 Bft) 98,00 %
11.12.2025 22:40 5,3 °C 4,4 °C 1,7 °C 94 % 1022,2 hPa 0,0 l/m² 0 min 0 min 0 W/m² 9,7 km/h (2 Bft) 100,00 %
11.12.2025 22:42 5,3 °C 4,4 °C 1,7 °C 94 % 1022,2 hPa 0,0 l/m² 0 min 0 min 0 W/m² 9,7 km/h (2 Bft) 98,04 %
11.12.2025 22:44 5,3 °C 4,4 °C 1,7 °C 94 % 1022,2 hPa 0,0 l/m² 0 min 0 min 0 W/m² 12,9 km/h (3 Bft) 100,00 %
11.12.2025 22:46 5,2 °C 4,4 °C 1,7 °C 94 % 1022,3 hPa 0,0 l/m² 0 min 0 min 0 W/m² 16,1 km/h (3 Bft) 100,00 %
11.12.2025 22:48 5,2 °C 4,4 °C 1,7 °C 94 % 1022,2 hPa 0,0 l/m² 0 min 0 min 0 W/m² 6,4 km/h (2 Bft) 100,00 %
11.12.2025 22:50 5,2 °C 4,4 °C 1,7 °C 94 % 1022,2 hPa 0,0 l/m² 0 min 0 min 0 W/m² 9,7 km/h (2 Bft) 100,00 %
11.12.2025 22:52 5,2 °C 4,4 °C 1,7 °C 95 % 1022,3 hPa 0,0 l/m² 0 min 0 min 0 W/m² 9,7 km/h (2 Bft) 100,00 %
11.12.2025 22:54 5,2 °C 4,4 °C 1,7 °C 94 % 1022,4 hPa 0,0 l/m² 0 min 0 min 0 W/m² 3,2 km/h (1 Bft) 100,00 %
11.12.2025 22:56 5,2 °C 4,4 °C 1,7 °C 94 % 1022,4 hPa 0,0 l/m² 0 min 0 min 0 W/m² 12,9 km/h (3 Bft) 100,00 %
11.12.2025 22:58 5,2 °C 4,4 °C 1,7 °C 95 % 1022,4 hPa 0,0 l/m² 0 min 0 min 0 W/m² 6,4 km/h (2 Bft) 100,00 %
11.12.2025 23:00 5,2 °C 4,4 °C 1,7 °C 95 % 1022,5 hPa 0,0 l/m² 0 min 0 min 0 W/m² 6,4 km/h (2 Bft) 98,04 %
11.12.2025 23:02 5,2 °C 4,4 °C 1,7 °C 95 % 1022,5 hPa 0,0 l/m² 0 min 0 min 0 W/m² 9,7 km/h (2 Bft) 100,00 %
11.12.2025 23:04 5,2 °C 4,4 °C 1,7 °C 95 % 1022,5 hPa 0,0 l/m² 0 min 0 min 0 W/m² 3,2 km/h (1 Bft) 98,15 %
11.12.2025 23:06 5,2 °C 4,4 °C 1,7 °C 95 % 1022,5 hPa 0,0 l/m² 0 min 0 min 0 W/m² 3,2 km/h (1 Bft) 100,00 %
11.12.2025 23:08 5,2 °C 4,4 °C 1,7 °C 95 % 1022,5 hPa 0,0 l/m² 0 min 0 min 0 W/m² 3,2 km/h (1 Bft) 100,00 %
11.12.2025 23:10 5,2 °C 3,9 °C 1,7 °C 95 % 1022,5 hPa 0,0 l/m² 0 min 0 min 0 W/m² 6,4 km/h (2 Bft) 97,37 %
11.12.2025 23:12 5,1 °C 3,9 °C 1,1 °C 95 % 1022,6 hPa 0,0 l/m² 0 min 0 min 0 W/m² 6,4 km/h (2 Bft) 96,36 %
11.12.2025 23:14 5,1 °C 3,9 °C 1,1 °C 95 % 1022,6 hPa 0,0 l/m² 0 min 0 min 0 W/m² 3,2 km/h (1 Bft) 95,65 %
11.12.2025 23:16 5,1 °C 3,9 °C 1,1 °C 95 % 1022,6 hPa 0,0 l/m² 0 min 0 min 0 W/m² 3,2 km/h (1 Bft) 93,48 %
11.12.2025 23:18 5,1 °C 3,9 °C 1,1 °C 95 % 1022,6 hPa 0,0 l/m² 0 min 0 min 0 W/m² 3,2 km/h (1 Bft) 95,12 %
11.12.2025 23:20 5,1 °C 3,9 °C 1,1 °C 95 % 1022,6 hPa 0,0 l/m² 0 min 0 min 0 W/m² 3,2 km/h (1 Bft) 93,62 %
11.12.2025 23:22 5,1 °C 3,9 °C 1,1 °C 95 % 1022,6 hPa 0,0 l/m² 0 min 0 min 0 W/m² 3,2 km/h (1 Bft) 93,62 %
11.12.2025 23:24 5,1 °C 3,9 °C 1,1 °C 95 % 1022,6 hPa 0,0 l/m² 0 min 0 min 0 W/m² 3,2 km/h (1 Bft) 94,64 %
11.12.2025 23:26 5,1 °C 3,9 °C 1,1 °C 95 % 1022,5 hPa 0,0 l/m² 0 min 0 min 0 W/m² 6,4 km/h (2 Bft) 95,65 %
11.12.2025 23:28 5,0 °C 3,9 °C 1,1 °C 95 % 1022,6 hPa 0,0 l/m² 0 min 0 min 0 W/m² 3,2 km/h (1 Bft) 94,74 %
11.12.2025 23:30 5,0 °C 3,9 °C 1,1 °C 95 % 1022,5 hPa 0,0 l/m² 0 min 0 min 0 W/m² 6,4 km/h (2 Bft) 95,74 %
11.12.2025 23:32 5,0 °C 3,9 °C 1,1 °C 95 % 1022,5 hPa 0,0 l/m² 0 min 0 min 0 W/m² 3,2 km/h (1 Bft) 95,74 %
11.12.2025 23:34 4,9 °C 3,9 °C 1,1 °C 95 % 1022,5 hPa 0,0 l/m² 0 min 0 min 0 W/m² 6,4 km/h (2 Bft) 95,74 %
11.12.2025 23:36 4,9 °C 3,9 °C 1,1 °C 95 % 1022,5 hPa 0,0 l/m² 0 min 0 min 0 W/m² 6,4 km/h (2 Bft) 91,49 %
11.12.2025 23:38 4,9 °C 3,9 °C 1,1 °C 95 % 1022,4 hPa 0,0 l/m² 0 min 0 min 0 W/m² 6,4 km/h (2 Bft) 96,49 %
11.12.2025 23:40 4,9 °C 3,9 °C 1,1 °C 95 % 1022,4 hPa 0,0 l/m² 0 min 0 min 0 W/m² 9,7 km/h (2 Bft) 95,56 %
11.12.2025 23:42 4,9 °C 3,9 °C 1,1 °C 95 % 1022,4 hPa 0,0 l/m² 0 min 0 min 0 W/m² 3,2 km/h (1 Bft) 97,87 %
11.12.2025 23:44 4,9 °C 3,9 °C 1,1 °C 95 % 1022,4 hPa 0,0 l/m² 0 min 0 min 0 W/m² 9,7 km/h (2 Bft) 97,83 %
11.12.2025 23:46 4,8 °C 3,9 °C 1,1 °C 95 % 1022,4 hPa 0,0 l/m² 0 min 0 min 0 W/m² 6,4 km/h (2 Bft) 97,92 %
11.12.2025 23:48 4,8 °C 3,9 °C 1,1 °C 95 % 1022,5 hPa 0,0 l/m² 0 min 0 min 0 W/m² 6,4 km/h (2 Bft) 95,56 %
11.12.2025 23:50 4,8 °C 3,9 °C 1,1 °C 95 % 1022,5 hPa 0,0 l/m² 0 min 0 min 0 W/m² 12,9 km/h (3 Bft) 97,50 %
11.12.2025 23:52 4,8 °C 3,9 °C 1,1 °C 95 % 1022,5 hPa 0,0 l/m² 0 min 0 min 0 W/m² 6,4 km/h (2 Bft) 95,74 %
11.12.2025 23:54 4,8 °C 3,9 °C 1,1 °C 95 % 1022,5 hPa 0,0 l/m² 0 min 0 min 0 W/m² 6,4 km/h (2 Bft) 97,87 %
11.12.2025 23:56 4,8 °C 3,9 °C 1,1 °C 95 % 1022,5 hPa 0,0 l/m² 0 min 0 min 0 W/m² 3,2 km/h (1 Bft) 93,62 %
11.12.2025 23:58 4,8 °C 3,9 °C 1,1 °C 95 % 1022,4 hPa 0,0 l/m² 0 min 0 min 0 W/m² 3,2 km/h (1 Bft) 96,36 %
_ Min-Zeit 23:46 23:10 23:12 13:52 22:20 - - - - 01:42 07:10
Minimum _ 4,8 °C 3,9 °C 1,1 °C 85 % 1022,1 hPa - - - - 0,0 km/h (0 Bft) 47,37 %
_ Max-Zeit 14:42 13:22 12:26 10:06 10:40 00:00 12:08 00:00 13:22 12:46 00:02
Maximum _ 11,7 °C 15,6 °C 7,2 °C 97 % 1025,5 hPa 0,0 l/m² 4 min 0 min 340 W/m² 19,3 km/h
S (3 Bft)
100,00 %
Durchschnitt _ 8,6 °C 8,0 °C 4,7 °C 93 % 1023,7 hPa #0,0 l/m² #2:16 h #0 min. 98 W/m² 8,4 km/h (2 Bft) 97,12 %
© 2025 W. Hausmann